<?xml version='1.0' encoding='UTF-8'?>
<gpx version="1.1" creator="https://www.komoot.de" xmlns="http://www.topografix.com/GPX/1/1" xmlns:xsi="http://www.w3.org/2001/XMLSchema-instance" xsi:schemaLocation="http://www.topografix.com/GPX/1/1 http://www.topografix.com/GPX/1/1/gpx.xsd">
  <metadata>
    <name>Tour dei due laghi</name>
    <author>
      <link href="https://www.komoot.de">
        <text>komoot</text>
        <type>text/html</type>
      </link>
    </author>
  </metadata>
  <trk>
    <name>Tour dei due laghi</name>
    <trkseg>
      <trkpt lat="45.804174" lon="8.664772">
        <ele>277.345255</ele>
        <time>2024-09-02T06:39:04.120Z</time>
      </trkpt>
      <trkpt lat="45.804190" lon="8.664609">
        <ele>277.345255</ele>
        <time>2024-09-02T06:39:09.853Z</time>
      </trkpt>
      <trkpt lat="45.804256" lon="8.664623">
        <ele>277.345255</ele>
        <time>2024-09-02T06:39:13.417Z</time>
      </trkpt>
      <trkpt lat="45.804238" lon="8.664912">
        <ele>277.345255</ele>
        <time>2024-09-02T06:39:23.493Z</time>
      </trkpt>
      <trkpt lat="45.804488" lon="8.664914">
        <ele>277.345255</ele>
        <time>2024-09-02T06:39:38.038Z</time>
      </trkpt>
      <trkpt lat="45.804862" lon="8.664810">
        <ele>277.854097</ele>
        <time>2024-09-02T06:40:00.909Z</time>
      </trkpt>
      <trkpt lat="45.806044" lon="8.664468">
        <ele>283.171843</ele>
        <time>2024-09-02T06:41:12.325Z</time>
      </trkpt>
      <trkpt lat="45.806138" lon="8.664472">
        <ele>283.586577</ele>
        <time>2024-09-02T06:41:17.154Z</time>
      </trkpt>
      <trkpt lat="45.806155" lon="8.664714">
        <ele>284.334313</ele>
        <time>2024-09-02T06:41:25.635Z</time>
      </trkpt>
      <trkpt lat="45.806137" lon="8.665108">
        <ele>285.240965</ele>
        <time>2024-09-02T06:41:37.561Z</time>
      </trkpt>
      <trkpt lat="45.806155" lon="8.665246">
        <ele>285.182705</ele>
        <time>2024-09-02T06:41:41.641Z</time>
      </trkpt>
      <trkpt lat="45.806497" lon="8.666165">
        <ele>284.750407</ele>
        <time>2024-09-02T06:42:02.879Z</time>
      </trkpt>
      <trkpt lat="45.806552" lon="8.667407">
        <ele>284.233978</ele>
        <time>2024-09-02T06:42:21.502Z</time>
      </trkpt>
      <trkpt lat="45.806593" lon="8.667890">
        <ele>283.351139</ele>
        <time>2024-09-02T06:42:28.488Z</time>
      </trkpt>
      <trkpt lat="45.806697" lon="8.668303">
        <ele>282.458736</ele>
        <time>2024-09-02T06:42:34.763Z</time>
      </trkpt>
      <trkpt lat="45.806845" lon="8.668680">
        <ele>281.579439</ele>
        <time>2024-09-02T06:42:40.954Z</time>
      </trkpt>
      <trkpt lat="45.806854" lon="8.669062">
        <ele>280.802681</ele>
        <time>2024-09-02T06:42:46.687Z</time>
      </trkpt>
      <trkpt lat="45.806969" lon="8.669465">
        <ele>279.917723</ele>
        <time>2024-09-02T06:42:53.290Z</time>
      </trkpt>
      <trkpt lat="45.807072" lon="8.669503">
        <ele>279.607669</ele>
        <time>2024-09-02T06:42:55.559Z</time>
      </trkpt>
      <trkpt lat="45.807119" lon="8.669569">
        <ele>279.415927</ele>
        <time>2024-09-02T06:42:56.935Z</time>
      </trkpt>
      <trkpt lat="45.807167" lon="8.669681">
        <ele>279.148741</ele>
        <time>2024-09-02T06:42:58.844Z</time>
      </trkpt>
      <trkpt lat="45.807206" lon="8.669872">
        <ele>278.784241</ele>
        <time>2024-09-02T06:43:01.782Z</time>
      </trkpt>
      <trkpt lat="45.807182" lon="8.670343">
        <ele>277.999801</ele>
        <time>2024-09-02T06:43:08.813Z</time>
      </trkpt>
      <trkpt lat="45.807085" lon="8.670763">
        <ele>277.264868</ele>
        <time>2024-09-02T06:43:15.506Z</time>
      </trkpt>
      <trkpt lat="45.806872" lon="8.671690">
        <ele>275.643579</ele>
        <time>2024-09-02T06:43:30.431Z</time>
      </trkpt>
      <trkpt lat="45.806758" lon="8.672482">
        <ele>274.181971</ele>
        <time>2024-09-02T06:43:42.390Z</time>
      </trkpt>
      <trkpt lat="45.806537" lon="8.672923">
        <ele>272.996607</ele>
        <time>2024-09-02T06:43:50.326Z</time>
      </trkpt>
      <trkpt lat="45.806664" lon="8.673107">
        <ele>272.431487</ele>
        <time>2024-09-02T06:43:54.186Z</time>
      </trkpt>
      <trkpt lat="45.806859" lon="8.673576">
        <ele>271.239671</ele>
        <time>2024-09-02T06:44:02.141Z</time>
      </trkpt>
      <trkpt lat="45.806918" lon="8.673758">
        <ele>270.801614</ele>
        <time>2024-09-02T06:44:04.975Z</time>
      </trkpt>
      <trkpt lat="45.806926" lon="8.673848">
        <ele>270.603603</ele>
        <time>2024-09-02T06:44:06.295Z</time>
      </trkpt>
      <trkpt lat="45.806965" lon="8.673907">
        <ele>270.426150</ele>
        <time>2024-09-02T06:44:07.492Z</time>
      </trkpt>
      <trkpt lat="45.807021" lon="8.673925">
        <ele>270.246476</ele>
        <time>2024-09-02T06:44:08.672Z</time>
      </trkpt>
      <trkpt lat="45.807057" lon="8.673911">
        <ele>270.129697</ele>
        <time>2024-09-02T06:44:09.438Z</time>
      </trkpt>
      <trkpt lat="45.807227" lon="8.673910">
        <ele>269.597448</ele>
        <time>2024-09-02T06:44:12.821Z</time>
      </trkpt>
      <trkpt lat="45.808087" lon="8.674036">
        <ele>265.976194</ele>
        <time>2024-09-02T06:44:29.687Z</time>
      </trkpt>
      <trkpt lat="45.808387" lon="8.673967">
        <ele>264.621163</ele>
        <time>2024-09-02T06:44:35.382Z</time>
      </trkpt>
      <trkpt lat="45.808647" lon="8.673822">
        <ele>263.377076</ele>
        <time>2024-09-02T06:44:40.505Z</time>
      </trkpt>
      <trkpt lat="45.808958" lon="8.673768">
        <ele>261.979952</ele>
        <time>2024-09-02T06:44:46.584Z</time>
      </trkpt>
      <trkpt lat="45.809106" lon="8.673798">
        <ele>261.313344</ele>
        <time>2024-09-02T06:44:49.672Z</time>
      </trkpt>
      <trkpt lat="45.809253" lon="8.673827">
        <ele>260.927640</ele>
        <time>2024-09-02T06:44:52.620Z</time>
      </trkpt>
      <trkpt lat="45.809613" lon="8.673986">
        <ele>260.492169</ele>
        <time>2024-09-02T06:45:00.470Z</time>
      </trkpt>
      <trkpt lat="45.809862" lon="8.674051">
        <ele>260.199574</ele>
        <time>2024-09-02T06:45:06.131Z</time>
      </trkpt>
      <trkpt lat="45.810039" lon="8.674013">
        <ele>259.992667</ele>
        <time>2024-09-02T06:45:09.988Z</time>
      </trkpt>
      <trkpt lat="45.810151" lon="8.674373">
        <ele>259.674978</ele>
        <time>2024-09-02T06:45:21.602Z</time>
      </trkpt>
      <trkpt lat="45.810159" lon="8.674706">
        <ele>259.406473</ele>
        <time>2024-09-02T06:45:32.238Z</time>
      </trkpt>
      <trkpt lat="45.810228" lon="8.675026">
        <ele>259.136547</ele>
        <time>2024-09-02T06:45:42.895Z</time>
      </trkpt>
      <trkpt lat="45.810529" lon="8.675630">
        <ele>259.544492</ele>
        <time>2024-09-02T06:46:11.680Z</time>
      </trkpt>
      <trkpt lat="45.810675" lon="8.676246">
        <ele>260.317699</ele>
        <time>2024-09-02T06:46:38.589Z</time>
      </trkpt>
      <trkpt lat="45.810632" lon="8.676887">
        <ele>261.082972</ele>
        <time>2024-09-02T06:47:06.186Z</time>
      </trkpt>
      <trkpt lat="45.810907" lon="8.677466">
        <ele>261.915598</ele>
        <time>2024-09-02T06:47:32.057Z</time>
      </trkpt>
      <trkpt lat="45.810933" lon="8.677565">
        <ele>261.994913</ele>
        <time>2024-09-02T06:47:35.677Z</time>
      </trkpt>
      <trkpt lat="45.811216" lon="8.678058">
        <ele>261.577466</ele>
        <time>2024-09-02T06:47:55.334Z</time>
      </trkpt>
      <trkpt lat="45.811135" lon="8.678491">
        <ele>261.284432</ele>
        <time>2024-09-02T06:48:08.447Z</time>
      </trkpt>
      <trkpt lat="45.813329" lon="8.680628">
        <ele>257.937737</ele>
        <time>2024-09-02T06:49:53.372Z</time>
      </trkpt>
      <trkpt lat="45.813382" lon="8.681057">
        <ele>257.587537</ele>
        <time>2024-09-02T06:50:06.549Z</time>
      </trkpt>
      <trkpt lat="45.813553" lon="8.681594">
        <ele>257.277073</ele>
        <time>2024-09-02T06:50:24.800Z</time>
      </trkpt>
      <trkpt lat="45.813697" lon="8.681818">
        <ele>257.116827</ele>
        <time>2024-09-02T06:50:34.117Z</time>
      </trkpt>
      <trkpt lat="45.813040" lon="8.682935">
        <ele>256.348237</ele>
        <time>2024-09-02T06:51:17.278Z</time>
      </trkpt>
      <trkpt lat="45.813004" lon="8.683160">
        <ele>255.804177</ele>
        <time>2024-09-02T06:51:23.856Z</time>
      </trkpt>
      <trkpt lat="45.813461" lon="8.683457">
        <ele>253.892688</ele>
        <time>2024-09-02T06:51:43.217Z</time>
      </trkpt>
      <trkpt lat="45.814539" lon="8.682525">
        <ele>248.802917</ele>
        <time>2024-09-02T06:52:27.080Z</time>
      </trkpt>
      <trkpt lat="45.815315" lon="8.681916">
        <ele>242.827512</ele>
        <time>2024-09-02T06:52:56.016Z</time>
      </trkpt>
      <trkpt lat="45.816251" lon="8.681792">
        <ele>236.700568</ele>
        <time>2024-09-02T06:53:26.448Z</time>
      </trkpt>
      <trkpt lat="45.816375" lon="8.681808">
        <ele>236.080421</ele>
        <time>2024-09-02T06:53:30.537Z</time>
      </trkpt>
      <trkpt lat="45.817338" lon="8.682007">
        <ele>231.234148</ele>
        <time>2024-09-02T06:54:03.543Z</time>
      </trkpt>
      <trkpt lat="45.817540" lon="8.682166">
        <ele>230.086511</ele>
        <time>2024-09-02T06:54:11.792Z</time>
      </trkpt>
      <trkpt lat="45.818476" lon="8.682655">
        <ele>228.214572</ele>
        <time>2024-09-02T06:54:50.268Z</time>
      </trkpt>
      <trkpt lat="45.818849" lon="8.683025">
        <ele>228.107671</ele>
        <time>2024-09-02T06:55:10.241Z</time>
      </trkpt>
      <trkpt lat="45.819380" lon="8.683521">
        <ele>227.958301</ele>
        <time>2024-09-02T06:55:43.421Z</time>
      </trkpt>
      <trkpt lat="45.819637" lon="8.683743">
        <ele>228.648154</ele>
        <time>2024-09-02T06:56:01.273Z</time>
      </trkpt>
      <trkpt lat="45.819806" lon="8.683805">
        <ele>229.160950</ele>
        <time>2024-09-02T06:56:12.152Z</time>
      </trkpt>
      <trkpt lat="45.820175" lon="8.683860">
        <ele>230.251549</ele>
        <time>2024-09-02T06:56:36.171Z</time>
      </trkpt>
      <trkpt lat="45.820378" lon="8.683979">
        <ele>230.896194</ele>
        <time>2024-09-02T06:56:50.349Z</time>
      </trkpt>
      <trkpt lat="45.820545" lon="8.684211">
        <ele>231.579518</ele>
        <time>2024-09-02T06:57:05.444Z</time>
      </trkpt>
      <trkpt lat="45.820680" lon="8.684466">
        <ele>232.235588</ele>
        <time>2024-09-02T06:57:19.817Z</time>
      </trkpt>
      <trkpt lat="45.820827" lon="8.684623">
        <ele>232.774293</ele>
        <time>2024-09-02T06:57:31.643Z</time>
      </trkpt>
      <trkpt lat="45.820974" lon="8.684706">
        <ele>233.236708</ele>
        <time>2024-09-02T06:57:41.674Z</time>
      </trkpt>
      <trkpt lat="45.821121" lon="8.684789">
        <ele>233.571876</ele>
        <time>2024-09-02T06:57:51.738Z</time>
      </trkpt>
      <trkpt lat="45.821326" lon="8.684660">
        <ele>234.046811</ele>
        <time>2024-09-02T06:58:05.656Z</time>
      </trkpt>
      <trkpt lat="45.822197" lon="8.683302">
        <ele>236.775722</ele>
        <time>2024-09-02T06:59:18.494Z</time>
      </trkpt>
      <trkpt lat="45.823118" lon="8.681492">
        <ele>239.109015</ele>
        <time>2024-09-02T07:00:36.747Z</time>
      </trkpt>
      <trkpt lat="45.823487" lon="8.680824">
        <ele>240.486879</ele>
        <time>2024-09-02T07:01:11.200Z</time>
      </trkpt>
      <trkpt lat="45.823559" lon="8.680673">
        <ele>240.961865</ele>
        <time>2024-09-02T07:01:19.081Z</time>
      </trkpt>
      <trkpt lat="45.823725" lon="8.680461">
        <ele>241.789708</ele>
        <time>2024-09-02T07:01:33.196Z</time>
      </trkpt>
      <trkpt lat="45.823944" lon="8.680131">
        <ele>242.972727</ele>
        <time>2024-09-02T07:01:54.714Z</time>
      </trkpt>
      <trkpt lat="45.824142" lon="8.679730">
        <ele>244.248572</ele>
        <time>2024-09-02T07:02:18.768Z</time>
      </trkpt>
      <trkpt lat="45.824439" lon="8.679362">
        <ele>245.710364</ele>
        <time>2024-09-02T07:02:46.914Z</time>
      </trkpt>
      <trkpt lat="45.824451" lon="8.679318">
        <ele>245.833026</ele>
        <time>2024-09-02T07:02:49.203Z</time>
      </trkpt>
      <trkpt lat="45.824951" lon="8.678690">
        <ele>248.378781</ele>
        <time>2024-09-02T07:03:38.137Z</time>
      </trkpt>
      <trkpt lat="45.825454" lon="8.678363">
        <ele>250.509303</ele>
        <time>2024-09-02T07:04:17.485Z</time>
      </trkpt>
      <trkpt lat="45.825731" lon="8.678008">
        <ele>251.942171</ele>
        <time>2024-09-02T07:04:42.518Z</time>
      </trkpt>
      <trkpt lat="45.826736" lon="8.677087">
        <ele>254.001235</ele>
        <time>2024-09-02T07:05:29.115Z</time>
      </trkpt>
      <trkpt lat="45.827282" lon="8.676427">
        <ele>254.614052</ele>
        <time>2024-09-02T07:05:48.022Z</time>
      </trkpt>
      <trkpt lat="45.828443" lon="8.675054">
        <ele>253.902023</ele>
        <time>2024-09-02T07:06:23.759Z</time>
      </trkpt>
      <trkpt lat="45.828926" lon="8.674548">
        <ele>253.565703</ele>
        <time>2024-09-02T07:06:38.867Z</time>
      </trkpt>
      <trkpt lat="45.828883" lon="8.674461">
        <ele>253.619628</ele>
        <time>2024-09-02T07:06:40.782Z</time>
      </trkpt>
      <trkpt lat="45.828724" lon="8.674034">
        <ele>253.864390</ele>
        <time>2024-09-02T07:06:50.319Z</time>
      </trkpt>
      <trkpt lat="45.828655" lon="8.673866">
        <ele>253.962979</ele>
        <time>2024-09-02T07:06:54.413Z</time>
      </trkpt>
      <trkpt lat="45.828301" lon="8.673391">
        <ele>254.314595</ele>
        <time>2024-09-02T07:07:09.427Z</time>
      </trkpt>
      <trkpt lat="45.828133" lon="8.673101">
        <ele>254.505258</ele>
        <time>2024-09-02T07:07:18.281Z</time>
      </trkpt>
      <trkpt lat="45.827942" lon="8.672696">
        <ele>254.752497</ele>
        <time>2024-09-02T07:07:30.526Z</time>
      </trkpt>
      <trkpt lat="45.827635" lon="8.671929">
        <ele>255.258448</ele>
        <time>2024-09-02T07:07:52.910Z</time>
      </trkpt>
      <trkpt lat="45.827603" lon="8.671621">
        <ele>255.440417</ele>
        <time>2024-09-02T07:08:00.349Z</time>
      </trkpt>
      <trkpt lat="45.827586" lon="8.671449">
        <ele>255.541931</ele>
        <time>2024-09-02T07:08:04.099Z</time>
      </trkpt>
      <trkpt lat="45.827562" lon="8.671145">
        <ele>255.720711</ele>
        <time>2024-09-02T07:08:10.868Z</time>
      </trkpt>
      <trkpt lat="45.827545" lon="8.670654">
        <ele>256.007981</ele>
        <time>2024-09-02T07:08:20.706Z</time>
      </trkpt>
      <trkpt lat="45.827546" lon="8.670530">
        <ele>256.080445</ele>
        <time>2024-09-02T07:08:23.092Z</time>
      </trkpt>
      <trkpt lat="45.827561" lon="8.670074">
        <ele>256.335618</ele>
        <time>2024-09-02T07:08:31.731Z</time>
      </trkpt>
      <trkpt lat="45.827572" lon="8.669980">
        <ele>256.351659</ele>
        <time>2024-09-02T07:08:33.464Z</time>
      </trkpt>
      <trkpt lat="45.827651" lon="8.669547">
        <ele>256.426986</ele>
        <time>2024-09-02T07:08:42.040Z</time>
      </trkpt>
      <trkpt lat="45.827682" lon="8.669382">
        <ele>256.455745</ele>
        <time>2024-09-02T07:08:45.200Z</time>
      </trkpt>
      <trkpt lat="45.827829" lon="8.668580">
        <ele>256.595306</ele>
        <time>2024-09-02T07:09:02.373Z</time>
      </trkpt>
      <trkpt lat="45.828025" lon="8.667885">
        <ele>256.721484</ele>
        <time>2024-09-02T07:09:16.801Z</time>
      </trkpt>
      <trkpt lat="45.828367" lon="8.666863">
        <ele>256.696606</ele>
        <time>2024-09-02T07:09:38.595Z</time>
      </trkpt>
      <trkpt lat="45.829160" lon="8.667360">
        <ele>256.598874</ele>
        <time>2024-09-02T07:10:16.659Z</time>
      </trkpt>
      <trkpt lat="45.829485" lon="8.667465">
        <ele>256.566324</ele>
        <time>2024-09-02T07:10:30.969Z</time>
      </trkpt>
      <trkpt lat="45.830117" lon="8.666585">
        <ele>257.006709</ele>
        <time>2024-09-02T07:11:08.948Z</time>
      </trkpt>
      <trkpt lat="45.830261" lon="8.666451">
        <ele>257.092538</ele>
        <time>2024-09-02T07:11:16.689Z</time>
      </trkpt>
      <trkpt lat="45.830623" lon="8.666346">
        <ele>257.277239</ele>
        <time>2024-09-02T07:11:34.434Z</time>
      </trkpt>
      <trkpt lat="45.830913" lon="8.666067">
        <ele>257.451843</ele>
        <time>2024-09-02T07:11:52.338Z</time>
      </trkpt>
      <trkpt lat="45.832283" lon="8.665386">
        <ele>261.669471</ele>
        <time>2024-09-02T07:13:25.482Z</time>
      </trkpt>
      <trkpt lat="45.832528" lon="8.665187">
        <ele>262.497751</ele>
        <time>2024-09-02T07:13:45.171Z</time>
      </trkpt>
      <trkpt lat="45.832647" lon="8.665037">
        <ele>262.786009</ele>
        <time>2024-09-02T07:13:55.424Z</time>
      </trkpt>
      <trkpt lat="45.832733" lon="8.664815">
        <ele>262.866036</ele>
        <time>2024-09-02T07:14:06.985Z</time>
      </trkpt>
      <trkpt lat="45.833084" lon="8.663308">
        <ele>263.366650</ele>
        <time>2024-09-02T07:15:02.382Z</time>
      </trkpt>
      <trkpt lat="45.832992" lon="8.663115">
        <ele>263.440325</ele>
        <time>2024-09-02T07:15:06.220Z</time>
      </trkpt>
      <trkpt lat="45.832861" lon="8.662570">
        <ele>262.989132</ele>
        <time>2024-09-02T07:15:15.314Z</time>
      </trkpt>
      <trkpt lat="45.832915" lon="8.661964">
        <ele>260.963746</ele>
        <time>2024-09-02T07:15:24.180Z</time>
      </trkpt>
      <trkpt lat="45.832920" lon="8.661631">
        <ele>259.859523</ele>
        <time>2024-09-02T07:15:28.828Z</time>
      </trkpt>
      <trkpt lat="45.832865" lon="8.661482">
        <ele>259.300516</ele>
        <time>2024-09-02T07:15:31.153Z</time>
      </trkpt>
      <trkpt lat="45.832649" lon="8.661144">
        <ele>257.780026</ele>
        <time>2024-09-02T07:15:37.388Z</time>
      </trkpt>
      <trkpt lat="45.832898" lon="8.660999">
        <ele>256.501453</ele>
        <time>2024-09-02T07:15:42.363Z</time>
      </trkpt>
      <trkpt lat="45.832867" lon="8.660700">
        <ele>255.499288</ele>
        <time>2024-09-02T07:15:46.266Z</time>
      </trkpt>
      <trkpt lat="45.832838" lon="8.660641">
        <ele>255.259917</ele>
        <time>2024-09-02T07:15:47.194Z</time>
      </trkpt>
      <trkpt lat="45.832646" lon="8.660528">
        <ele>254.078179</ele>
        <time>2024-09-02T07:15:50.973Z</time>
      </trkpt>
      <trkpt lat="45.832528" lon="8.660145">
        <ele>252.323423</ele>
        <time>2024-09-02T07:15:56.308Z</time>
      </trkpt>
      <trkpt lat="45.832537" lon="8.659717">
        <ele>250.529184</ele>
        <time>2024-09-02T07:16:01.806Z</time>
      </trkpt>
      <trkpt lat="45.832589" lon="8.659689">
        <ele>250.195175</ele>
        <time>2024-09-02T07:16:02.832Z</time>
      </trkpt>
      <trkpt lat="45.832645" lon="8.659597">
        <ele>249.683285</ele>
        <time>2024-09-02T07:16:04.396Z</time>
      </trkpt>
      <trkpt lat="45.832711" lon="8.659423">
        <ele>248.853146</ele>
        <time>2024-09-02T07:16:07.006Z</time>
      </trkpt>
      <trkpt lat="45.832765" lon="8.659130">
        <ele>247.583186</ele>
        <time>2024-09-02T07:16:10.899Z</time>
      </trkpt>
      <trkpt lat="45.832819" lon="8.658836">
        <ele>246.309176</ele>
        <time>2024-09-02T07:16:14.811Z</time>
      </trkpt>
      <trkpt lat="45.833004" lon="8.658423">
        <ele>244.251836</ele>
        <time>2024-09-02T07:16:21.135Z</time>
      </trkpt>
      <trkpt lat="45.833092" lon="8.658334">
        <ele>243.629862</ele>
        <time>2024-09-02T07:16:23.114Z</time>
      </trkpt>
      <trkpt lat="45.833065" lon="8.658227">
        <ele>243.173663</ele>
        <time>2024-09-02T07:16:25.155Z</time>
      </trkpt>
      <trkpt lat="45.832954" lon="8.658072">
        <ele>242.282629</ele>
        <time>2024-09-02T07:16:29.154Z</time>
      </trkpt>
      <trkpt lat="45.832868" lon="8.658001">
        <ele>241.711808</ele>
        <time>2024-09-02T07:16:32.496Z</time>
      </trkpt>
      <trkpt lat="45.832647" lon="8.657901">
        <ele>240.378592</ele>
        <time>2024-09-02T07:16:40.435Z</time>
      </trkpt>
      <trkpt lat="45.833026" lon="8.656568">
        <ele>234.607124</ele>
        <time>2024-09-02T07:17:14.300Z</time>
      </trkpt>
      <trkpt lat="45.833092" lon="8.656336">
        <ele>233.595565</ele>
        <time>2024-09-02T07:17:20.261Z</time>
      </trkpt>
      <trkpt lat="45.832997" lon="8.656142">
        <ele>232.617419</ele>
        <time>2024-09-02T07:17:25.811Z</time>
      </trkpt>
      <trkpt lat="45.833075" lon="8.655446">
        <ele>229.709459</ele>
        <time>2024-09-02T07:17:42.363Z</time>
      </trkpt>
      <trkpt lat="45.833179" lon="8.654823">
        <ele>227.066804</ele>
        <time>2024-09-02T07:17:57.351Z</time>
      </trkpt>
      <trkpt lat="45.833313" lon="8.654327">
        <ele>224.872346</ele>
        <time>2024-09-02T07:18:09.787Z</time>
      </trkpt>
      <trkpt lat="45.833374" lon="8.654182">
        <ele>224.173638</ele>
        <time>2024-09-02T07:18:12.045Z</time>
      </trkpt>
      <trkpt lat="45.833559" lon="8.653970">
        <ele>222.843179</ele>
        <time>2024-09-02T07:18:16.682Z</time>
      </trkpt>
      <trkpt lat="45.833419" lon="8.653603">
        <ele>221.407587</ele>
        <time>2024-09-02T07:18:22.358Z</time>
      </trkpt>
      <trkpt lat="45.833388" lon="8.653426">
        <ele>220.781389</ele>
        <time>2024-09-02T07:18:24.831Z</time>
      </trkpt>
      <trkpt lat="45.833456" lon="8.653268">
        <ele>220.144191</ele>
        <time>2024-09-02T07:18:27.332Z</time>
      </trkpt>
      <trkpt lat="45.833506" lon="8.653338">
        <ele>219.800228</ele>
        <time>2024-09-02T07:18:28.705Z</time>
      </trkpt>
      <trkpt lat="45.833603" lon="8.653206">
        <ele>219.141977</ele>
        <time>2024-09-02T07:18:31.206Z</time>
      </trkpt>
      <trkpt lat="45.833638" lon="8.653080">
        <ele>218.676569</ele>
        <time>2024-09-02T07:18:32.941Z</time>
      </trkpt>
      <trkpt lat="45.833599" lon="8.652055">
        <ele>215.154462</ele>
        <time>2024-09-02T07:18:46.763Z</time>
      </trkpt>
      <trkpt lat="45.833651" lon="8.651904">
        <ele>214.576539</ele>
        <time>2024-09-02T07:18:49.146Z</time>
      </trkpt>
      <trkpt lat="45.834418" lon="8.650748">
        <ele>211.958744</ele>
        <time>2024-09-02T07:19:12.820Z</time>
      </trkpt>
      <trkpt lat="45.834562" lon="8.650535">
        <ele>211.496302</ele>
        <time>2024-09-02T07:19:17.474Z</time>
      </trkpt>
      <trkpt lat="45.835085" lon="8.651129">
        <ele>210.257496</ele>
        <time>2024-09-02T07:19:44.315Z</time>
      </trkpt>
      <trkpt lat="45.835387" lon="8.651591">
        <ele>210.074364</ele>
        <time>2024-09-02T07:20:02.576Z</time>
      </trkpt>
      <trkpt lat="45.835649" lon="8.651714">
        <ele>209.959990</ele>
        <time>2024-09-02T07:20:14.349Z</time>
      </trkpt>
      <trkpt lat="45.835819" lon="8.651862">
        <ele>209.877495</ele>
        <time>2024-09-02T07:20:22.965Z</time>
      </trkpt>
      <trkpt lat="45.836222" lon="8.652452">
        <ele>209.638650</ele>
        <time>2024-09-02T07:20:48.668Z</time>
      </trkpt>
      <trkpt lat="45.836501" lon="8.652540">
        <ele>209.659238</ele>
        <time>2024-09-02T07:21:01.980Z</time>
      </trkpt>
      <trkpt lat="45.836626" lon="8.652635">
        <ele>209.768331</ele>
        <time>2024-09-02T07:21:08.810Z</time>
      </trkpt>
      <trkpt lat="45.836706" lon="8.652836">
        <ele>209.892725</ele>
        <time>2024-09-02T07:21:16.720Z</time>
      </trkpt>
      <trkpt lat="45.836770" lon="8.653236">
        <ele>210.113268</ele>
        <time>2024-09-02T07:21:30.554Z</time>
      </trkpt>
      <trkpt lat="45.837006" lon="8.654310">
        <ele>210.718425</ele>
        <time>2024-09-02T07:22:09.772Z</time>
      </trkpt>
      <trkpt lat="45.836908" lon="8.654461">
        <ele>210.829319</ele>
        <time>2024-09-02T07:22:15.630Z</time>
      </trkpt>
      <trkpt lat="45.836856" lon="8.654579">
        <ele>210.904348</ele>
        <time>2024-09-02T07:22:19.733Z</time>
      </trkpt>
      <trkpt lat="45.836860" lon="8.654622">
        <ele>210.927660</ele>
        <time>2024-09-02T07:22:21.017Z</time>
      </trkpt>
      <trkpt lat="45.836870" lon="8.654752">
        <ele>211.038146</ele>
        <time>2024-09-02T07:22:24.903Z</time>
      </trkpt>
      <trkpt lat="45.836875" lon="8.654804">
        <ele>211.093443</ele>
        <time>2024-09-02T07:22:26.406Z</time>
      </trkpt>
      <trkpt lat="45.837334" lon="8.654997">
        <ele>211.816622</ele>
        <time>2024-09-02T07:22:46.283Z</time>
      </trkpt>
      <trkpt lat="45.837519" lon="8.655183">
        <ele>212.158140</ele>
        <time>2024-09-02T07:22:55.795Z</time>
      </trkpt>
      <trkpt lat="45.837641" lon="8.655394">
        <ele>212.446984</ele>
        <time>2024-09-02T07:23:03.796Z</time>
      </trkpt>
      <trkpt lat="45.837932" lon="8.656040">
        <ele>213.257338</ele>
        <time>2024-09-02T07:23:27.339Z</time>
      </trkpt>
      <trkpt lat="45.838150" lon="8.656456">
        <ele>213.941594</ele>
        <time>2024-09-02T07:23:44.859Z</time>
      </trkpt>
      <trkpt lat="45.838287" lon="8.657149">
        <ele>215.493515</ele>
        <time>2024-09-02T07:24:12.039Z</time>
      </trkpt>
      <trkpt lat="45.838412" lon="8.657478">
        <ele>216.300850</ele>
        <time>2024-09-02T07:24:29.169Z</time>
      </trkpt>
      <trkpt lat="45.838459" lon="8.657679">
        <ele>216.757616</ele>
        <time>2024-09-02T07:24:38.676Z</time>
      </trkpt>
      <trkpt lat="45.838471" lon="8.657922">
        <ele>217.282439</ele>
        <time>2024-09-02T07:24:49.824Z</time>
      </trkpt>
      <trkpt lat="45.838450" lon="8.658010">
        <ele>217.482836</ele>
        <time>2024-09-02T07:24:53.942Z</time>
      </trkpt>
      <trkpt lat="45.838246" lon="8.658414">
        <ele>218.557768</ele>
        <time>2024-09-02T07:25:10.622Z</time>
      </trkpt>
      <trkpt lat="45.838147" lon="8.658487">
        <ele>218.901940</ele>
        <time>2024-09-02T07:25:15.831Z</time>
      </trkpt>
      <trkpt lat="45.838104" lon="8.658573">
        <ele>219.129992</ele>
        <time>2024-09-02T07:25:19.528Z</time>
      </trkpt>
      <trkpt lat="45.838112" lon="8.658636">
        <ele>219.256665</ele>
        <time>2024-09-02T07:25:21.640Z</time>
      </trkpt>
      <trkpt lat="45.838151" lon="8.658691">
        <ele>219.362859</ele>
        <time>2024-09-02T07:25:24.117Z</time>
      </trkpt>
      <trkpt lat="45.838240" lon="8.658782">
        <ele>219.575100</ele>
        <time>2024-09-02T07:25:28.778Z</time>
      </trkpt>
      <trkpt lat="45.838298" lon="8.658841">
        <ele>219.713176</ele>
        <time>2024-09-02T07:25:31.972Z</time>
      </trkpt>
      <trkpt lat="45.838316" lon="8.658977">
        <ele>219.900500</ele>
        <time>2024-09-02T07:25:36.424Z</time>
      </trkpt>
      <trkpt lat="45.838671" lon="8.659344">
        <ele>220.750245</ele>
        <time>2024-09-02T07:25:53.603Z</time>
      </trkpt>
      <trkpt lat="45.838887" lon="8.659580">
        <ele>221.277499</ele>
        <time>2024-09-02T07:26:03.526Z</time>
      </trkpt>
      <trkpt lat="45.839267" lon="8.660025">
        <ele>222.230050</ele>
        <time>2024-09-02T07:26:19.943Z</time>
      </trkpt>
      <trkpt lat="45.839272" lon="8.660031">
        <ele>222.242708</ele>
        <time>2024-09-02T07:26:20.159Z</time>
      </trkpt>
      <trkpt lat="45.839302" lon="8.660002">
        <ele>222.312959</ele>
        <time>2024-09-02T07:26:22.670Z</time>
      </trkpt>
      <trkpt lat="45.839423" lon="8.660135">
        <ele>222.608972</ele>
        <time>2024-09-02T07:26:33.246Z</time>
      </trkpt>
      <trkpt lat="45.839462" lon="8.660130">
        <ele>222.685024</ele>
        <time>2024-09-02T07:26:35.989Z</time>
      </trkpt>
      <trkpt lat="45.839678" lon="8.659939">
        <ele>223.429842</ele>
        <time>2024-09-02T07:26:53.596Z</time>
      </trkpt>
      <trkpt lat="45.839741" lon="8.659892">
        <ele>223.645572</ele>
        <time>2024-09-02T07:26:58.523Z</time>
      </trkpt>
      <trkpt lat="45.839846" lon="8.659785">
        <ele>224.036829</ele>
        <time>2024-09-02T07:27:07.470Z</time>
      </trkpt>
      <trkpt lat="45.839784" lon="8.659380">
        <ele>224.914570</ele>
        <time>2024-09-02T07:27:18.883Z</time>
      </trkpt>
      <trkpt lat="45.839765" lon="8.659013">
        <ele>225.693564</ele>
        <time>2024-09-02T07:27:29.170Z</time>
      </trkpt>
      <trkpt lat="45.839780" lon="8.658903">
        <ele>225.930826</ele>
        <time>2024-09-02T07:27:32.594Z</time>
      </trkpt>
      <trkpt lat="45.839853" lon="8.658838">
        <ele>226.191840</ele>
        <time>2024-09-02T07:27:36.191Z</time>
      </trkpt>
      <trkpt lat="45.839962" lon="8.658814">
        <ele>226.526900</ele>
        <time>2024-09-02T07:27:40.856Z</time>
      </trkpt>
      <trkpt lat="45.840377" lon="8.658875">
        <ele>227.794435</ele>
        <time>2024-09-02T07:28:02.138Z</time>
      </trkpt>
      <trkpt lat="45.840328" lon="8.658381">
        <ele>229.846130</ele>
        <time>2024-09-02T07:28:23.990Z</time>
      </trkpt>
      <trkpt lat="45.840322" lon="8.658021">
        <ele>231.767722</ele>
        <time>2024-09-02T07:28:41.530Z</time>
      </trkpt>
      <trkpt lat="45.840378" lon="8.657279">
        <ele>235.750368</ele>
        <time>2024-09-02T07:29:20.733Z</time>
      </trkpt>
      <trkpt lat="45.840451" lon="8.657206">
        <ele>236.431840</ele>
        <time>2024-09-02T07:29:27.903Z</time>
      </trkpt>
      <trkpt lat="45.841565" lon="8.657196">
        <ele>245.016798</ele>
        <time>2024-09-02T07:30:55.156Z</time>
      </trkpt>
      <trkpt lat="45.841960" lon="8.657194">
        <ele>248.094852</ele>
        <time>2024-09-02T07:31:25.965Z</time>
      </trkpt>
      <trkpt lat="45.842003" lon="8.657192">
        <ele>248.430105</ele>
        <time>2024-09-02T07:31:29.367Z</time>
      </trkpt>
      <trkpt lat="45.842126" lon="8.656421">
        <ele>252.723864</ele>
        <time>2024-09-02T07:32:10.924Z</time>
      </trkpt>
      <trkpt lat="45.842119" lon="8.656178">
        <ele>254.044129</ele>
        <time>2024-09-02T07:32:22.868Z</time>
      </trkpt>
      <trkpt lat="45.842520" lon="8.656070">
        <ele>256.526073</ele>
        <time>2024-09-02T07:32:49.797Z</time>
      </trkpt>
      <trkpt lat="45.842683" lon="8.655809">
        <ele>257.353792</ele>
        <time>2024-09-02T07:33:03.862Z</time>
      </trkpt>
      <trkpt lat="45.842815" lon="8.655490">
        <ele>258.229930</ele>
        <time>2024-09-02T07:33:18.148Z</time>
      </trkpt>
      <trkpt lat="45.842943" lon="8.654945">
        <ele>259.588034</ele>
        <time>2024-09-02T07:33:37.209Z</time>
      </trkpt>
      <trkpt lat="45.842973" lon="8.654618">
        <ele>260.366860</ele>
        <time>2024-09-02T07:33:47.061Z</time>
      </trkpt>
      <trkpt lat="45.843012" lon="8.654091">
        <ele>261.618288</ele>
        <time>2024-09-02T07:34:00.819Z</time>
      </trkpt>
      <trkpt lat="45.843077" lon="8.653880">
        <ele>262.052564</ele>
        <time>2024-09-02T07:34:06.025Z</time>
      </trkpt>
      <trkpt lat="45.843320" lon="8.653011">
        <ele>261.093521</ele>
        <time>2024-09-02T07:34:23.740Z</time>
      </trkpt>
      <trkpt lat="45.843447" lon="8.652466">
        <ele>260.504940</ele>
        <time>2024-09-02T07:34:33.059Z</time>
      </trkpt>
      <trkpt lat="45.843549" lon="8.652321">
        <ele>260.293890</ele>
        <time>2024-09-02T07:34:36.489Z</time>
      </trkpt>
      <trkpt lat="45.843888" lon="8.652153">
        <ele>259.766624</ele>
        <time>2024-09-02T07:34:44.376Z</time>
      </trkpt>
      <trkpt lat="45.844311" lon="8.652066">
        <ele>258.622205</ele>
        <time>2024-09-02T07:34:53.025Z</time>
      </trkpt>
      <trkpt lat="45.844534" lon="8.651908">
        <ele>257.634238</ele>
        <time>2024-09-02T07:34:57.972Z</time>
      </trkpt>
      <trkpt lat="45.844691" lon="8.651734">
        <ele>256.846253</ele>
        <time>2024-09-02T07:35:01.873Z</time>
      </trkpt>
      <trkpt lat="45.844900" lon="8.651423">
        <ele>255.650343</ele>
        <time>2024-09-02T07:35:07.792Z</time>
      </trkpt>
      <trkpt lat="45.845443" lon="8.650802">
        <ele>252.892230</ele>
        <time>2024-09-02T07:35:21.148Z</time>
      </trkpt>
      <trkpt lat="45.846247" lon="8.649697">
        <ele>249.163433</ele>
        <time>2024-09-02T07:35:43.731Z</time>
      </trkpt>
      <trkpt lat="45.846353" lon="8.649427">
        <ele>248.461142</ele>
        <time>2024-09-02T07:35:48.182Z</time>
      </trkpt>
      <trkpt lat="45.846459" lon="8.648849">
        <ele>247.106782</ele>
        <time>2024-09-02T07:35:56.799Z</time>
      </trkpt>
      <trkpt lat="45.846515" lon="8.648479">
        <ele>246.336892</ele>
        <time>2024-09-02T07:36:02.317Z</time>
      </trkpt>
      <trkpt lat="45.846499" lon="8.648183">
        <ele>245.966153</ele>
        <time>2024-09-02T07:36:06.684Z</time>
      </trkpt>
      <trkpt lat="45.846531" lon="8.647920">
        <ele>245.632761</ele>
        <time>2024-09-02T07:36:10.747Z</time>
      </trkpt>
      <trkpt lat="45.846588" lon="8.647734">
        <ele>245.379011</ele>
        <time>2024-09-02T07:36:13.890Z</time>
      </trkpt>
      <trkpt lat="45.846896" lon="8.647604">
        <ele>244.803499</ele>
        <time>2024-09-02T07:36:21.375Z</time>
      </trkpt>
      <trkpt lat="45.847088" lon="8.647409">
        <ele>244.381880</ele>
        <time>2024-09-02T07:36:26.864Z</time>
      </trkpt>
      <trkpt lat="45.847370" lon="8.646662">
        <ele>243.320899</ele>
        <time>2024-09-02T07:36:40.476Z</time>
      </trkpt>
      <trkpt lat="45.847811" lon="8.645613">
        <ele>241.687282</ele>
        <time>2024-09-02T07:36:59.649Z</time>
      </trkpt>
      <trkpt lat="45.848091" lon="8.645119">
        <ele>240.834356</ele>
        <time>2024-09-02T07:37:09.628Z</time>
      </trkpt>
      <trkpt lat="45.848516" lon="8.644606">
        <ele>239.766808</ele>
        <time>2024-09-02T07:37:21.806Z</time>
      </trkpt>
      <trkpt lat="45.848908" lon="8.645366">
        <ele>237.018506</ele>
        <time>2024-09-02T07:37:46.249Z</time>
      </trkpt>
      <trkpt lat="45.849148" lon="8.645993">
        <ele>234.935567</ele>
        <time>2024-09-02T07:38:04.084Z</time>
      </trkpt>
      <trkpt lat="45.849656" lon="8.646694">
        <ele>231.857336</ele>
        <time>2024-09-02T07:38:28.118Z</time>
      </trkpt>
      <trkpt lat="45.849904" lon="8.646952">
        <ele>229.906893</ele>
        <time>2024-09-02T07:38:38.251Z</time>
      </trkpt>
      <trkpt lat="45.850246" lon="8.647213">
        <ele>227.440284</ele>
        <time>2024-09-02T07:38:50.930Z</time>
      </trkpt>
      <trkpt lat="45.850442" lon="8.647436">
        <ele>225.847628</ele>
        <time>2024-09-02T07:38:59.093Z</time>
      </trkpt>
      <trkpt lat="45.850686" lon="8.647837">
        <ele>223.485713</ele>
        <time>2024-09-02T07:39:11.361Z</time>
      </trkpt>
      <trkpt lat="45.850932" lon="8.648423">
        <ele>220.581488</ele>
        <time>2024-09-02T07:39:27.310Z</time>
      </trkpt>
      <trkpt lat="45.850980" lon="8.649203">
        <ele>218.446690</ele>
        <time>2024-09-02T07:39:45.830Z</time>
      </trkpt>
      <trkpt lat="45.851069" lon="8.649297">
        <ele>218.014222</ele>
        <time>2024-09-02T07:39:49.604Z</time>
      </trkpt>
      <trkpt lat="45.850919" lon="8.649446">
        <ele>217.300273</ele>
        <time>2024-09-02T07:39:56.019Z</time>
      </trkpt>
      <trkpt lat="45.850831" lon="8.649630">
        <ele>216.691763</ele>
        <time>2024-09-02T07:40:01.473Z</time>
      </trkpt>
      <trkpt lat="45.850834" lon="8.650101">
        <ele>215.407619</ele>
        <time>2024-09-02T07:40:13.546Z</time>
      </trkpt>
      <trkpt lat="45.850905" lon="8.650525">
        <ele>214.218729</ele>
        <time>2024-09-02T07:40:25.385Z</time>
      </trkpt>
      <trkpt lat="45.850976" lon="8.650765">
        <ele>213.796848</ele>
        <time>2024-09-02T07:40:32.795Z</time>
      </trkpt>
      <trkpt lat="45.851058" lon="8.651244">
        <ele>214.057627</ele>
        <time>2024-09-02T07:40:47.732Z</time>
      </trkpt>
      <trkpt lat="45.851173" lon="8.651679">
        <ele>214.303615</ele>
        <time>2024-09-02T07:41:03.466Z</time>
      </trkpt>
      <trkpt lat="45.851181" lon="8.651777">
        <ele>214.355781</ele>
        <time>2024-09-02T07:41:06.881Z</time>
      </trkpt>
      <trkpt lat="45.851137" lon="8.651813">
        <ele>214.394221</ele>
        <time>2024-09-02T07:41:09.416Z</time>
      </trkpt>
      <trkpt lat="45.850954" lon="8.651797">
        <ele>214.533383</ele>
        <time>2024-09-02T07:41:18.731Z</time>
      </trkpt>
      <trkpt lat="45.850793" lon="8.651852">
        <ele>214.659000</ele>
        <time>2024-09-02T07:41:27.416Z</time>
      </trkpt>
      <trkpt lat="45.850744" lon="8.651954">
        <ele>214.724509</ele>
        <time>2024-09-02T07:41:32.046Z</time>
      </trkpt>
      <trkpt lat="45.850738" lon="8.652060">
        <ele>214.780735</ele>
        <time>2024-09-02T07:41:36.017Z</time>
      </trkpt>
      <trkpt lat="45.850886" lon="8.652896">
        <ele>215.551315</ele>
        <time>2024-09-02T07:42:09.917Z</time>
      </trkpt>
      <trkpt lat="45.850886" lon="8.653057">
        <ele>215.856559</ele>
        <time>2024-09-02T07:42:16.511Z</time>
      </trkpt>
      <trkpt lat="45.850946" lon="8.653292">
        <ele>216.331092</ele>
        <time>2024-09-02T07:42:26.960Z</time>
      </trkpt>
      <trkpt lat="45.851277" lon="8.654007">
        <ele>217.958776</ele>
        <time>2024-09-02T07:43:04.208Z</time>
      </trkpt>
      <trkpt lat="45.851416" lon="8.654168">
        <ele>218.444908</ele>
        <time>2024-09-02T07:43:15.795Z</time>
      </trkpt>
      <trkpt lat="45.851416" lon="8.654168">
        <ele>218.444908</ele>
        <time>2024-09-02T07:43:15.798Z</time>
      </trkpt>
      <trkpt lat="45.851479" lon="8.654529">
        <ele>219.150487</ele>
        <time>2024-09-02T07:43:31.941Z</time>
      </trkpt>
      <trkpt lat="45.851422" lon="8.654815">
        <ele>219.714478</ele>
        <time>2024-09-02T07:43:44.905Z</time>
      </trkpt>
      <trkpt lat="45.851455" lon="8.655102">
        <ele>220.362259</ele>
        <time>2024-09-02T07:43:57.309Z</time>
      </trkpt>
      <trkpt lat="45.851580" lon="8.655381">
        <ele>221.228719</ele>
        <time>2024-09-02T07:44:11.026Z</time>
      </trkpt>
      <trkpt lat="45.852003" lon="8.655920">
        <ele>223.349574</ele>
        <time>2024-09-02T07:44:44.861Z</time>
      </trkpt>
      <trkpt lat="45.851894" lon="8.655976">
        <ele>223.783698</ele>
        <time>2024-09-02T07:44:51.793Z</time>
      </trkpt>
      <trkpt lat="45.851664" lon="8.656291">
        <ele>224.975667</ele>
        <time>2024-09-02T07:45:13.394Z</time>
      </trkpt>
      <trkpt lat="45.851485" lon="8.656620">
        <ele>226.066072</ele>
        <time>2024-09-02T07:45:35.141Z</time>
      </trkpt>
      <trkpt lat="45.851414" lon="8.656702">
        <ele>226.407771</ele>
        <time>2024-09-02T07:45:41.990Z</time>
      </trkpt>
      <trkpt lat="45.851233" lon="8.656790">
        <ele>227.434388</ele>
        <time>2024-09-02T07:45:57.508Z</time>
      </trkpt>
      <trkpt lat="45.851093" lon="8.656953">
        <ele>228.678836</ele>
        <time>2024-09-02T07:46:12.108Z</time>
      </trkpt>
      <trkpt lat="45.851052" lon="8.657044">
        <ele>229.200011</ele>
        <time>2024-09-02T07:46:18.436Z</time>
      </trkpt>
      <trkpt lat="45.851063" lon="8.658008">
        <ele>233.836352</ele>
        <time>2024-09-02T07:47:17.315Z</time>
      </trkpt>
      <trkpt lat="45.851036" lon="8.658177">
        <ele>234.670150</ele>
        <time>2024-09-02T07:47:27.863Z</time>
      </trkpt>
      <trkpt lat="45.850898" lon="8.658591">
        <ele>236.877247</ele>
        <time>2024-09-02T07:47:56.117Z</time>
      </trkpt>
      <trkpt lat="45.850771" lon="8.659014">
        <ele>239.092320</ele>
        <time>2024-09-02T07:48:19.215Z</time>
      </trkpt>
      <trkpt lat="45.850798" lon="8.659112">
        <ele>239.498192</ele>
        <time>2024-09-02T07:48:24.719Z</time>
      </trkpt>
      <trkpt lat="45.850902" lon="8.659307">
        <ele>240.399071</ele>
        <time>2024-09-02T07:48:37.803Z</time>
      </trkpt>
      <trkpt lat="45.850832" lon="8.659640">
        <ele>241.674957</ele>
        <time>2024-09-02T07:48:55.198Z</time>
      </trkpt>
      <trkpt lat="45.850828" lon="8.659772">
        <ele>242.159602</ele>
        <time>2024-09-02T07:49:01.697Z</time>
      </trkpt>
      <trkpt lat="45.850881" lon="8.659831">
        <ele>242.512786</ele>
        <time>2024-09-02T07:49:06.347Z</time>
      </trkpt>
      <trkpt lat="45.850715" lon="8.660257">
        <ele>244.303304</ele>
        <time>2024-09-02T07:49:34.366Z</time>
      </trkpt>
      <trkpt lat="45.850035" lon="8.661517">
        <ele>248.962675</ele>
        <time>2024-09-02T07:50:45.584Z</time>
      </trkpt>
      <trkpt lat="45.849911" lon="8.661689">
        <ele>249.153964</ele>
        <time>2024-09-02T07:50:54.323Z</time>
      </trkpt>
      <trkpt lat="45.849822" lon="8.661743">
        <ele>249.261159</ele>
        <time>2024-09-02T07:50:59.241Z</time>
      </trkpt>
      <trkpt lat="45.849714" lon="8.661727">
        <ele>249.381613</ele>
        <time>2024-09-02T07:51:04.734Z</time>
      </trkpt>
      <trkpt lat="45.849579" lon="8.661641">
        <ele>249.545468</ele>
        <time>2024-09-02T07:51:12.454Z</time>
      </trkpt>
      <trkpt lat="45.849459" lon="8.661619">
        <ele>249.679681</ele>
        <time>2024-09-02T07:51:18.719Z</time>
      </trkpt>
      <trkpt lat="45.848660" lon="8.661882">
        <ele>250.589114</ele>
        <time>2024-09-02T07:51:57.798Z</time>
      </trkpt>
      <trkpt lat="45.848391" lon="8.661855">
        <ele>250.728262</ele>
        <time>2024-09-02T07:52:08.652Z</time>
      </trkpt>
      <trkpt lat="45.847499" lon="8.662203">
        <ele>251.089560</ele>
        <time>2024-09-02T07:52:48.436Z</time>
      </trkpt>
      <trkpt lat="45.847462" lon="8.662406">
        <ele>251.146691</ele>
        <time>2024-09-02T07:52:52.827Z</time>
      </trkpt>
      <trkpt lat="45.847229" lon="8.662896">
        <ele>251.308223</ele>
        <time>2024-09-02T07:53:07.096Z</time>
      </trkpt>
      <trkpt lat="45.847300" lon="8.663223">
        <ele>252.021484</ele>
        <time>2024-09-02T07:53:16.535Z</time>
      </trkpt>
      <trkpt lat="45.847422" lon="8.663455">
        <ele>252.958059</ele>
        <time>2024-09-02T07:53:24.865Z</time>
      </trkpt>
      <trkpt lat="45.847650" lon="8.663799">
        <ele>254.487956</ele>
        <time>2024-09-02T07:53:40.534Z</time>
      </trkpt>
      <trkpt lat="45.847664" lon="8.663937">
        <ele>254.937270</ele>
        <time>2024-09-02T07:53:45.471Z</time>
      </trkpt>
      <trkpt lat="45.848183" lon="8.664998">
        <ele>259.114410</ele>
        <time>2024-09-02T07:54:41.338Z</time>
      </trkpt>
      <trkpt lat="45.848171" lon="8.665240">
        <ele>260.033286</ele>
        <time>2024-09-02T07:54:52.567Z</time>
      </trkpt>
      <trkpt lat="45.848249" lon="8.665518">
        <ele>261.569058</ele>
        <time>2024-09-02T07:55:07.796Z</time>
      </trkpt>
      <trkpt lat="45.848263" lon="8.665568">
        <ele>261.845196</ele>
        <time>2024-09-02T07:55:10.317Z</time>
      </trkpt>
      <trkpt lat="45.848512" lon="8.666179">
        <ele>265.472602</ele>
        <time>2024-09-02T07:55:44.622Z</time>
      </trkpt>
      <trkpt lat="45.848474" lon="8.666436">
        <ele>266.818878</ele>
        <time>2024-09-02T07:55:58.329Z</time>
      </trkpt>
      <trkpt lat="45.848316" lon="8.667136">
        <ele>270.589480</ele>
        <time>2024-09-02T07:56:36.052Z</time>
      </trkpt>
      <trkpt lat="45.848428" lon="8.667187">
        <ele>271.453865</ele>
        <time>2024-09-02T07:56:45.673Z</time>
      </trkpt>
      <trkpt lat="45.848562" lon="8.667198">
        <ele>272.441249</ele>
        <time>2024-09-02T07:56:55.564Z</time>
      </trkpt>
      <trkpt lat="45.849115" lon="8.666436">
        <ele>277.584987</ele>
        <time>2024-09-02T07:57:47.766Z</time>
      </trkpt>
      <trkpt lat="45.849356" lon="8.666238">
        <ele>279.432634</ele>
        <time>2024-09-02T07:58:04.627Z</time>
      </trkpt>
      <trkpt lat="45.849808" lon="8.666066">
        <ele>282.544123</ele>
        <time>2024-09-02T07:58:34.785Z</time>
      </trkpt>
      <trkpt lat="45.850014" lon="8.665900">
        <ele>284.116019</ele>
        <time>2024-09-02T07:58:50.368Z</time>
      </trkpt>
      <trkpt lat="45.850113" lon="8.665821">
        <ele>284.870250</ele>
        <time>2024-09-02T07:58:58.295Z</time>
      </trkpt>
      <trkpt lat="45.850163" lon="8.665664">
        <ele>285.745791</ele>
        <time>2024-09-02T07:59:06.141Z</time>
      </trkpt>
      <trkpt lat="45.850245" lon="8.665568">
        <ele>286.516211</ele>
        <time>2024-09-02T07:59:13.529Z</time>
      </trkpt>
      <trkpt lat="45.850449" lon="8.665214">
        <ele>288.846399</ele>
        <time>2024-09-02T07:59:35.653Z</time>
      </trkpt>
      <trkpt lat="45.851034" lon="8.664957">
        <ele>293.300932</ele>
        <time>2024-09-02T08:00:17.805Z</time>
      </trkpt>
      <trkpt lat="45.851196" lon="8.664764">
        <ele>294.833737</ele>
        <time>2024-09-02T08:00:32.817Z</time>
      </trkpt>
      <trkpt lat="45.851528" lon="8.664133">
        <ele>299.028281</ele>
        <time>2024-09-02T08:01:14.715Z</time>
      </trkpt>
      <trkpt lat="45.851625" lon="8.664529">
        <ele>301.600116</ele>
        <time>2024-09-02T08:01:39.189Z</time>
      </trkpt>
      <trkpt lat="45.851769" lon="8.664874">
        <ele>304.064294</ele>
        <time>2024-09-02T08:02:02.960Z</time>
      </trkpt>
      <trkpt lat="45.851937" lon="8.664657">
        <ele>306.052085</ele>
        <time>2024-09-02T08:02:22.344Z</time>
      </trkpt>
      <trkpt lat="45.852132" lon="8.664503">
        <ele>308.009712</ele>
        <time>2024-09-02T08:02:41.109Z</time>
      </trkpt>
      <trkpt lat="45.852209" lon="8.664511">
        <ele>308.688788</ele>
        <time>2024-09-02T08:02:47.599Z</time>
      </trkpt>
      <trkpt lat="45.852547" lon="8.664757">
        <ele>312.022086</ele>
        <time>2024-09-02T08:03:18.359Z</time>
      </trkpt>
      <trkpt lat="45.852740" lon="8.664801">
        <ele>313.741018</ele>
        <time>2024-09-02T08:03:32.763Z</time>
      </trkpt>
      <trkpt lat="45.852941" lon="8.664684">
        <ele>314.911983</ele>
        <time>2024-09-02T08:03:47.978Z</time>
      </trkpt>
      <trkpt lat="45.853419" lon="8.664121">
        <ele>318.204446</ele>
        <time>2024-09-02T08:04:27.917Z</time>
      </trkpt>
      <trkpt lat="45.853637" lon="8.663821">
        <ele>319.812519</ele>
        <time>2024-09-02T08:04:45.196Z</time>
      </trkpt>
      <trkpt lat="45.853719" lon="8.663719">
        <ele>320.390288</ele>
        <time>2024-09-02T08:04:50.581Z</time>
      </trkpt>
      <trkpt lat="45.854258" lon="8.664310">
        <ele>323.669649</ele>
        <time>2024-09-02T08:05:22.239Z</time>
      </trkpt>
      <trkpt lat="45.854549" lon="8.664565">
        <ele>324.545643</ele>
        <time>2024-09-02T08:05:37.373Z</time>
      </trkpt>
      <trkpt lat="45.854777" lon="8.664891">
        <ele>325.372444</ele>
        <time>2024-09-02T08:05:51.271Z</time>
      </trkpt>
      <trkpt lat="45.854902" lon="8.665250">
        <ele>326.090731</ele>
        <time>2024-09-02T08:06:01.924Z</time>
      </trkpt>
      <trkpt lat="45.855081" lon="8.665122">
        <ele>326.604563</ele>
        <time>2024-09-02T08:06:13.271Z</time>
      </trkpt>
      <trkpt lat="45.855234" lon="8.664829">
        <ele>327.259930</ele>
        <time>2024-09-02T08:06:28.142Z</time>
      </trkpt>
      <trkpt lat="45.855412" lon="8.664380">
        <ele>328.205050</ele>
        <time>2024-09-02T08:06:49.378Z</time>
      </trkpt>
      <trkpt lat="45.855636" lon="8.663574">
        <ele>329.915136</ele>
        <time>2024-09-02T08:07:25.157Z</time>
      </trkpt>
      <trkpt lat="45.855833" lon="8.663189">
        <ele>330.856560</ele>
        <time>2024-09-02T08:07:46.447Z</time>
      </trkpt>
      <trkpt lat="45.856133" lon="8.662695">
        <ele>332.148125</ele>
        <time>2024-09-02T08:08:15.776Z</time>
      </trkpt>
      <trkpt lat="45.856135" lon="8.662691">
        <ele>332.157829</ele>
        <time>2024-09-02T08:08:15.979Z</time>
      </trkpt>
      <trkpt lat="45.856305" lon="8.662339">
        <ele>333.001926</ele>
        <time>2024-09-02T08:08:34.749Z</time>
      </trkpt>
      <trkpt lat="45.856886" lon="8.661357">
        <ele>335.244410</ele>
        <time>2024-09-02T08:09:28.845Z</time>
      </trkpt>
      <trkpt lat="45.856943" lon="8.661119">
        <ele>335.680813</ele>
        <time>2024-09-02T08:09:39.129Z</time>
      </trkpt>
      <trkpt lat="45.857122" lon="8.660991">
        <ele>336.178681</ele>
        <time>2024-09-02T08:09:50.947Z</time>
      </trkpt>
      <trkpt lat="45.857262" lon="8.660817">
        <ele>336.639682</ele>
        <time>2024-09-02T08:10:01.842Z</time>
      </trkpt>
      <trkpt lat="45.857632" lon="8.660542">
        <ele>337.635983</ele>
        <time>2024-09-02T08:10:25.911Z</time>
      </trkpt>
      <trkpt lat="45.857486" lon="8.659901">
        <ele>338.431736</ele>
        <time>2024-09-02T08:10:52.035Z</time>
      </trkpt>
      <trkpt lat="45.857652" lon="8.659581">
        <ele>338.902544</ele>
        <time>2024-09-02T08:11:06.913Z</time>
      </trkpt>
      <trkpt lat="45.858194" lon="8.658930">
        <ele>340.099719</ele>
        <time>2024-09-02T08:11:44.503Z</time>
      </trkpt>
      <trkpt lat="45.858602" lon="8.658674">
        <ele>340.906944</ele>
        <time>2024-09-02T08:12:08.379Z</time>
      </trkpt>
      <trkpt lat="45.858857" lon="8.658335">
        <ele>341.616306</ele>
        <time>2024-09-02T08:12:27.077Z</time>
      </trkpt>
      <trkpt lat="45.859482" lon="8.657593">
        <ele>343.271689</ele>
        <time>2024-09-02T08:13:14.638Z</time>
      </trkpt>
      <trkpt lat="45.859981" lon="8.658064">
        <ele>344.477852</ele>
        <time>2024-09-02T08:13:49.262Z</time>
      </trkpt>
      <trkpt lat="45.860606" lon="8.657376">
        <ele>345.993263</ele>
        <time>2024-09-02T08:14:33.711Z</time>
      </trkpt>
      <trkpt lat="45.860707" lon="8.657167">
        <ele>346.334167</ele>
        <time>2024-09-02T08:14:43.542Z</time>
      </trkpt>
      <trkpt lat="45.860805" lon="8.657084">
        <ele>346.553104</ele>
        <time>2024-09-02T08:14:49.784Z</time>
      </trkpt>
      <trkpt lat="45.860904" lon="8.657000">
        <ele>346.774379</ele>
        <time>2024-09-02T08:14:56.453Z</time>
      </trkpt>
      <trkpt lat="45.861145" lon="8.656909">
        <ele>347.253895</ele>
        <time>2024-09-02T08:15:10.543Z</time>
      </trkpt>
      <trkpt lat="45.861338" lon="8.656934">
        <ele>347.626789</ele>
        <time>2024-09-02T08:15:21.853Z</time>
      </trkpt>
      <trkpt lat="45.861472" lon="8.656991">
        <ele>347.710042</ele>
        <time>2024-09-02T08:15:29.554Z</time>
      </trkpt>
      <trkpt lat="45.861610" lon="8.656950">
        <ele>347.679970</ele>
        <time>2024-09-02T08:15:37.254Z</time>
      </trkpt>
      <trkpt lat="45.861998" lon="8.656666">
        <ele>347.587035</ele>
        <time>2024-09-02T08:15:59.092Z</time>
      </trkpt>
      <trkpt lat="45.862353" lon="8.656714">
        <ele>347.510944</ele>
        <time>2024-09-02T08:16:14.874Z</time>
      </trkpt>
      <trkpt lat="45.862667" lon="8.656525">
        <ele>347.438288</ele>
        <time>2024-09-02T08:16:29.401Z</time>
      </trkpt>
      <trkpt lat="45.863362" lon="8.656496">
        <ele>345.774588</ele>
        <time>2024-09-02T08:16:56.753Z</time>
      </trkpt>
      <trkpt lat="45.863509" lon="8.656402">
        <ele>344.791341</ele>
        <time>2024-09-02T08:17:02.574Z</time>
      </trkpt>
      <trkpt lat="45.863619" lon="8.656308">
        <ele>344.009200</ele>
        <time>2024-09-02T08:17:07.058Z</time>
      </trkpt>
      <trkpt lat="45.863730" lon="8.655914">
        <ele>342.200716</ele>
        <time>2024-09-02T08:17:17.086Z</time>
      </trkpt>
      <trkpt lat="45.863790" lon="8.655608">
        <ele>340.848047</ele>
        <time>2024-09-02T08:17:24.324Z</time>
      </trkpt>
      <trkpt lat="45.863776" lon="8.655508">
        <ele>340.414031</ele>
        <time>2024-09-02T08:17:26.625Z</time>
      </trkpt>
      <trkpt lat="45.863601" lon="8.655353">
        <ele>339.157689</ele>
        <time>2024-09-02T08:17:33.201Z</time>
      </trkpt>
      <trkpt lat="45.863511" lon="8.655237">
        <ele>338.418738</ele>
        <time>2024-09-02T08:17:37.057Z</time>
      </trkpt>
      <trkpt lat="45.863493" lon="8.655146">
        <ele>338.016211</ele>
        <time>2024-09-02T08:17:39.121Z</time>
      </trkpt>
      <trkpt lat="45.863537" lon="8.655073">
        <ele>337.605399</ele>
        <time>2024-09-02T08:17:41.235Z</time>
      </trkpt>
      <trkpt lat="45.863809" lon="8.654815">
        <ele>335.173339</ele>
        <time>2024-09-02T08:17:51.471Z</time>
      </trkpt>
      <trkpt lat="45.864226" lon="8.654308">
        <ele>329.851062</ele>
        <time>2024-09-02T08:18:08.365Z</time>
      </trkpt>
      <trkpt lat="45.864270" lon="8.654198">
        <ele>328.990577</ele>
        <time>2024-09-02T08:18:11.079Z</time>
      </trkpt>
      <trkpt lat="45.864254" lon="8.654044">
        <ele>327.934408</ele>
        <time>2024-09-02T08:18:14.373Z</time>
      </trkpt>
      <trkpt lat="45.864118" lon="8.653672">
        <ele>325.084457</ele>
        <time>2024-09-02T08:18:23.242Z</time>
      </trkpt>
      <trkpt lat="45.863783" lon="8.653206">
        <ele>320.541313</ele>
        <time>2024-09-02T08:18:37.654Z</time>
      </trkpt>
      <trkpt lat="45.863822" lon="8.653014">
        <ele>319.184660</ele>
        <time>2024-09-02T08:18:42.015Z</time>
      </trkpt>
      <trkpt lat="45.863895" lon="8.652891">
        <ele>318.287019</ele>
        <time>2024-09-02T08:18:45.553Z</time>
      </trkpt>
      <trkpt lat="45.863996" lon="8.652828">
        <ele>317.500067</ele>
        <time>2024-09-02T08:18:49.013Z</time>
      </trkpt>
      <trkpt lat="45.864140" lon="8.652624">
        <ele>316.054479</ele>
        <time>2024-09-02T08:18:55.504Z</time>
      </trkpt>
      <trkpt lat="45.864250" lon="8.652409">
        <ele>314.726774</ele>
        <time>2024-09-02T08:19:01.474Z</time>
      </trkpt>
      <trkpt lat="45.864276" lon="8.652161">
        <ele>313.478678</ele>
        <time>2024-09-02T08:19:07.139Z</time>
      </trkpt>
      <trkpt lat="45.864202" lon="8.652003">
        <ele>312.531082</ele>
        <time>2024-09-02T08:19:11.456Z</time>
      </trkpt>
      <trkpt lat="45.864079" lon="8.651909">
        <ele>311.535333</ele>
        <time>2024-09-02T08:19:16.009Z</time>
      </trkpt>
      <trkpt lat="45.863993" lon="8.651755">
        <ele>310.552940</ele>
        <time>2024-09-02T08:19:20.515Z</time>
      </trkpt>
      <trkpt lat="45.863869" lon="8.651465">
        <ele>308.859377</ele>
        <time>2024-09-02T08:19:28.281Z</time>
      </trkpt>
      <trkpt lat="45.863836" lon="8.651374">
        <ele>308.348779</ele>
        <time>2024-09-02T08:19:30.637Z</time>
      </trkpt>
      <trkpt lat="45.863721" lon="8.651273">
        <ele>307.385408</ele>
        <time>2024-09-02T08:19:35.071Z</time>
      </trkpt>
      <trkpt lat="45.863646" lon="8.651108">
        <ele>306.404818</ele>
        <time>2024-09-02T08:19:39.700Z</time>
      </trkpt>
      <trkpt lat="45.863525" lon="8.650690">
        <ele>305.519045</ele>
        <time>2024-09-02T08:19:50.646Z</time>
      </trkpt>
      <trkpt lat="45.863453" lon="8.650570">
        <ele>305.320249</ele>
        <time>2024-09-02T08:19:54.584Z</time>
      </trkpt>
      <trkpt lat="45.863483" lon="8.650522">
        <ele>305.239303</ele>
        <time>2024-09-02T08:19:55.552Z</time>
      </trkpt>
      <trkpt lat="45.863706" lon="8.650063">
        <ele>304.536901</ele>
        <time>2024-09-02T08:20:10.576Z</time>
      </trkpt>
      <trkpt lat="45.863775" lon="8.649709">
        <ele>304.075546</ele>
        <time>2024-09-02T08:20:20.773Z</time>
      </trkpt>
      <trkpt lat="45.863798" lon="8.649315">
        <ele>303.579331</ele>
        <time>2024-09-02T08:20:32.256Z</time>
      </trkpt>
      <trkpt lat="45.863817" lon="8.648436">
        <ele>302.942772</ele>
        <time>2024-09-02T08:21:01.946Z</time>
      </trkpt>
      <trkpt lat="45.863805" lon="8.647887">
        <ele>303.478718</ele>
        <time>2024-09-02T08:21:23.909Z</time>
      </trkpt>
      <trkpt lat="45.863693" lon="8.647149">
        <ele>304.215718</ele>
        <time>2024-09-02T08:21:56.466Z</time>
      </trkpt>
      <trkpt lat="45.863569" lon="8.646659">
        <ele>304.724424</ele>
        <time>2024-09-02T08:22:18.084Z</time>
      </trkpt>
      <trkpt lat="45.863454" lon="8.646412">
        <ele>305.014339</ele>
        <time>2024-09-02T08:22:28.812Z</time>
      </trkpt>
      <trkpt lat="45.863278" lon="8.646206">
        <ele>304.962468</ele>
        <time>2024-09-02T08:22:39.348Z</time>
      </trkpt>
      <trkpt lat="45.863227" lon="8.646013">
        <ele>304.154033</ele>
        <time>2024-09-02T08:22:45.459Z</time>
      </trkpt>
      <trkpt lat="45.863093" lon="8.645789">
        <ele>302.997539</ele>
        <time>2024-09-02T08:22:53.536Z</time>
      </trkpt>
      <trkpt lat="45.862950" lon="8.645322">
        <ele>300.999614</ele>
        <time>2024-09-02T08:23:05.861Z</time>
      </trkpt>
      <trkpt lat="45.862899" lon="8.645056">
        <ele>299.919109</ele>
        <time>2024-09-02T08:23:12.128Z</time>
      </trkpt>
      <trkpt lat="45.862322" lon="8.644186">
        <ele>295.213905</ele>
        <time>2024-09-02T08:23:38.571Z</time>
      </trkpt>
      <trkpt lat="45.862015" lon="8.643674">
        <ele>291.510083</ele>
        <time>2024-09-02T08:23:53.409Z</time>
      </trkpt>
      <trkpt lat="45.861690" lon="8.643847">
        <ele>288.760230</ele>
        <time>2024-09-02T08:24:04.509Z</time>
      </trkpt>
      <trkpt lat="45.861540" lon="8.643842">
        <ele>287.569878</ele>
        <time>2024-09-02T08:24:09.359Z</time>
      </trkpt>
      <trkpt lat="45.861505" lon="8.643888">
        <ele>287.193458</ele>
        <time>2024-09-02T08:24:10.934Z</time>
      </trkpt>
      <trkpt lat="45.861489" lon="8.644081">
        <ele>286.119628</ele>
        <time>2024-09-02T08:24:15.362Z</time>
      </trkpt>
      <trkpt lat="45.861774" lon="8.645182">
        <ele>279.584960</ele>
        <time>2024-09-02T08:24:41.551Z</time>
      </trkpt>
      <trkpt lat="45.861874" lon="8.645568">
        <ele>277.226965</ele>
        <time>2024-09-02T08:24:51.003Z</time>
      </trkpt>
      <trkpt lat="45.862050" lon="8.646154">
        <ele>273.573129</ele>
        <time>2024-09-02T08:25:05.730Z</time>
      </trkpt>
      <trkpt lat="45.861687" lon="8.646218">
        <ele>270.566281</ele>
        <time>2024-09-02T08:25:12.161Z</time>
      </trkpt>
      <trkpt lat="45.861570" lon="8.646211">
        <ele>269.603520</ele>
        <time>2024-09-02T08:25:14.195Z</time>
      </trkpt>
      <trkpt lat="45.861437" lon="8.646141">
        <ele>268.438914</ele>
        <time>2024-09-02T08:25:16.612Z</time>
      </trkpt>
      <trkpt lat="45.861245" lon="8.645725">
        <ele>265.502971</ele>
        <time>2024-09-02T08:25:22.504Z</time>
      </trkpt>
      <trkpt lat="45.861187" lon="8.645722">
        <ele>264.951543</ele>
        <time>2024-09-02T08:25:23.465Z</time>
      </trkpt>
      <trkpt lat="45.861084" lon="8.646491">
        <ele>259.770090</ele>
        <time>2024-09-02T08:25:32.680Z</time>
      </trkpt>
      <trkpt lat="45.860998" lon="8.647125">
        <ele>255.496294</ele>
        <time>2024-09-02T08:25:40.289Z</time>
      </trkpt>
      <trkpt lat="45.860748" lon="8.647656">
        <ele>251.255255</ele>
        <time>2024-09-02T08:25:48.002Z</time>
      </trkpt>
      <trkpt lat="45.860785" lon="8.648124">
        <ele>248.582891</ele>
        <time>2024-09-02T08:25:53.760Z</time>
      </trkpt>
      <trkpt lat="45.860762" lon="8.648321">
        <ele>247.945352</ele>
        <time>2024-09-02T08:25:56.278Z</time>
      </trkpt>
      <trkpt lat="45.860596" lon="8.648127">
        <ele>246.964430</ele>
        <time>2024-09-02T08:26:00.106Z</time>
      </trkpt>
      <trkpt lat="45.860320" lon="8.647908">
        <ele>245.519214</ele>
        <time>2024-09-02T08:26:06.224Z</time>
      </trkpt>
      <trkpt lat="45.860256" lon="8.647759">
        <ele>244.960466</ele>
        <time>2024-09-02T08:26:08.779Z</time>
      </trkpt>
      <trkpt lat="45.860152" lon="8.647384">
        <ele>243.672151</ele>
        <time>2024-09-02T08:26:14.536Z</time>
      </trkpt>
      <trkpt lat="45.860015" lon="8.647008">
        <ele>242.317727</ele>
        <time>2024-09-02T08:26:20.754Z</time>
      </trkpt>
      <trkpt lat="45.859926" lon="8.646582">
        <ele>240.898180</ele>
        <time>2024-09-02T08:26:27.185Z</time>
      </trkpt>
      <trkpt lat="45.859943" lon="8.646454">
        <ele>240.568797</ele>
        <time>2024-09-02T08:26:29.018Z</time>
      </trkpt>
      <trkpt lat="45.859958" lon="8.646335">
        <ele>240.305988</ele>
        <time>2024-09-02T08:26:30.777Z</time>
      </trkpt>
      <trkpt lat="45.860066" lon="8.646101">
        <ele>239.695928</ele>
        <time>2024-09-02T08:26:34.773Z</time>
      </trkpt>
      <trkpt lat="45.860093" lon="8.645853">
        <ele>239.150438</ele>
        <time>2024-09-02T08:26:38.456Z</time>
      </trkpt>
      <trkpt lat="45.860062" lon="8.645597">
        <ele>238.585761</ele>
        <time>2024-09-02T08:26:42.203Z</time>
      </trkpt>
      <trkpt lat="45.859860" lon="8.644737">
        <ele>236.613400</ele>
        <time>2024-09-02T08:26:55.407Z</time>
      </trkpt>
      <trkpt lat="45.859742" lon="8.644228">
        <ele>235.447577</ele>
        <time>2024-09-02T08:27:03.107Z</time>
      </trkpt>
      <trkpt lat="45.859732" lon="8.643975">
        <ele>234.873437</ele>
        <time>2024-09-02T08:27:06.642Z</time>
      </trkpt>
      <trkpt lat="45.859742" lon="8.643697">
        <ele>234.210330</ele>
        <time>2024-09-02T08:27:10.430Z</time>
      </trkpt>
      <trkpt lat="45.859826" lon="8.643173">
        <ele>232.929467</ele>
        <time>2024-09-02T08:27:17.755Z</time>
      </trkpt>
      <trkpt lat="45.859826" lon="8.643054">
        <ele>232.645997</ele>
        <time>2024-09-02T08:27:19.421Z</time>
      </trkpt>
      <trkpt lat="45.859732" lon="8.642582">
        <ele>231.476576</ele>
        <time>2024-09-02T08:27:26.589Z</time>
      </trkpt>
      <trkpt lat="45.859721" lon="8.642373">
        <ele>230.977297</ele>
        <time>2024-09-02T08:27:29.559Z</time>
      </trkpt>
      <trkpt lat="45.859795" lon="8.641820">
        <ele>229.635897</ele>
        <time>2024-09-02T08:27:37.698Z</time>
      </trkpt>
      <trkpt lat="45.859843" lon="8.641685">
        <ele>229.274826</ele>
        <time>2024-09-02T08:27:40.242Z</time>
      </trkpt>
      <trkpt lat="45.859966" lon="8.641535">
        <ele>228.674077</ele>
        <time>2024-09-02T08:27:43.448Z</time>
      </trkpt>
      <trkpt lat="45.860204" lon="8.641466">
        <ele>227.691065</ele>
        <time>2024-09-02T08:27:48.291Z</time>
      </trkpt>
      <trkpt lat="45.860523" lon="8.641301">
        <ele>226.318326</ele>
        <time>2024-09-02T08:27:54.855Z</time>
      </trkpt>
      <trkpt lat="45.860961" lon="8.640847">
        <ele>224.131307</ele>
        <time>2024-09-02T08:28:05.344Z</time>
      </trkpt>
      <trkpt lat="45.861167" lon="8.640621">
        <ele>223.081737</ele>
        <time>2024-09-02T08:28:10.748Z</time>
      </trkpt>
      <trkpt lat="45.861006" lon="8.640156">
        <ele>221.604520</ele>
        <time>2024-09-02T08:28:23.731Z</time>
      </trkpt>
      <trkpt lat="45.860961" lon="8.640030">
        <ele>221.146529</ele>
        <time>2024-09-02T08:28:26.994Z</time>
      </trkpt>
      <trkpt lat="45.861010" lon="8.639798">
        <ele>220.362415</ele>
        <time>2024-09-02T08:28:33.085Z</time>
      </trkpt>
      <trkpt lat="45.861167" lon="8.639404">
        <ele>218.894228</ele>
        <time>2024-09-02T08:28:43.745Z</time>
      </trkpt>
      <trkpt lat="45.861361" lon="8.639039">
        <ele>217.409155</ele>
        <time>2024-09-02T08:28:54.550Z</time>
      </trkpt>
      <trkpt lat="45.861494" lon="8.638836">
        <ele>216.507698</ele>
        <time>2024-09-02T08:29:01.310Z</time>
      </trkpt>
      <trkpt lat="45.861627" lon="8.638633">
        <ele>215.606242</ele>
        <time>2024-09-02T08:29:07.732Z</time>
      </trkpt>
      <trkpt lat="45.862316" lon="8.638003">
        <ele>212.884981</ele>
        <time>2024-09-02T08:29:37.500Z</time>
      </trkpt>
      <trkpt lat="45.862131" lon="8.637736">
        <ele>212.514896</ele>
        <time>2024-09-02T08:29:47.720Z</time>
      </trkpt>
      <trkpt lat="45.862026" lon="8.637446">
        <ele>212.193735</ele>
        <time>2024-09-02T08:29:56.792Z</time>
      </trkpt>
      <trkpt lat="45.861748" lon="8.637423">
        <ele>211.800836</ele>
        <time>2024-09-02T08:30:08.316Z</time>
      </trkpt>
      <trkpt lat="45.861292" lon="8.637458">
        <ele>211.156516</ele>
        <time>2024-09-02T08:30:28.021Z</time>
      </trkpt>
      <trkpt lat="45.861038" lon="8.637614">
        <ele>210.832837</ele>
        <time>2024-09-02T08:30:40.677Z</time>
      </trkpt>
      <trkpt lat="45.860776" lon="8.638003">
        <ele>211.027793</ele>
        <time>2024-09-02T08:30:58.750Z</time>
      </trkpt>
      <trkpt lat="45.860687" lon="8.638252">
        <ele>211.128622</ele>
        <time>2024-09-02T08:31:08.497Z</time>
      </trkpt>
      <trkpt lat="45.860417" lon="8.638402">
        <ele>211.278383</ele>
        <time>2024-09-02T08:31:22.945Z</time>
      </trkpt>
      <trkpt lat="45.860038" lon="8.638813">
        <ele>211.524071</ele>
        <time>2024-09-02T08:31:46.288Z</time>
      </trkpt>
      <trkpt lat="45.859614" lon="8.639161">
        <ele>211.710352</ele>
        <time>2024-09-02T08:32:09.200Z</time>
      </trkpt>
      <trkpt lat="45.859340" lon="8.639456">
        <ele>211.510260</ele>
        <time>2024-09-02T08:32:24.617Z</time>
      </trkpt>
      <trkpt lat="45.858888" lon="8.640018">
        <ele>211.160924</ele>
        <time>2024-09-02T08:32:50.542Z</time>
      </trkpt>
      <trkpt lat="45.858735" lon="8.640435">
        <ele>210.969139</ele>
        <time>2024-09-02T08:33:04.300Z</time>
      </trkpt>
      <trkpt lat="45.858658" lon="8.640823">
        <ele>210.804976</ele>
        <time>2024-09-02T08:33:15.857Z</time>
      </trkpt>
      <trkpt lat="45.858642" lon="8.641669">
        <ele>210.594511</ele>
        <time>2024-09-02T08:33:39.352Z</time>
      </trkpt>
      <trkpt lat="45.858622" lon="8.641837">
        <ele>210.564835</ele>
        <time>2024-09-02T08:33:43.982Z</time>
      </trkpt>
      <trkpt lat="45.858501" lon="8.642005">
        <ele>210.522755</ele>
        <time>2024-09-02T08:33:50.535Z</time>
      </trkpt>
      <trkpt lat="45.858447" lon="8.642065">
        <ele>210.505685</ele>
        <time>2024-09-02T08:33:53.181Z</time>
      </trkpt>
      <trkpt lat="45.858347" lon="8.642075">
        <ele>210.480624</ele>
        <time>2024-09-02T08:33:57.028Z</time>
      </trkpt>
      <trkpt lat="45.858057" lon="8.642416">
        <ele>210.386913</ele>
        <time>2024-09-02T08:34:12.495Z</time>
      </trkpt>
      <trkpt lat="45.857839" lon="8.642485">
        <ele>210.331103</ele>
        <time>2024-09-02T08:34:23.145Z</time>
      </trkpt>
      <trkpt lat="45.856970" lon="8.642563">
        <ele>212.530585</ele>
        <time>2024-09-02T08:35:16.675Z</time>
      </trkpt>
      <trkpt lat="45.856875" lon="8.642065">
        <ele>214.092460</ele>
        <time>2024-09-02T08:35:36.199Z</time>
      </trkpt>
      <trkpt lat="45.856767" lon="8.641681">
        <ele>215.345152</ele>
        <time>2024-09-02T08:35:52.683Z</time>
      </trkpt>
      <trkpt lat="45.856588" lon="8.641135">
        <ele>217.170575</ele>
        <time>2024-09-02T08:36:17.682Z</time>
      </trkpt>
      <trkpt lat="45.856341" lon="8.640383">
        <ele>219.430327</ele>
        <time>2024-09-02T08:36:54.237Z</time>
      </trkpt>
      <trkpt lat="45.856105" lon="8.639473">
        <ele>221.907281</ele>
        <time>2024-09-02T08:37:33.159Z</time>
      </trkpt>
      <trkpt lat="45.856046" lon="8.639084">
        <ele>222.922809</ele>
        <time>2024-09-02T08:37:45.448Z</time>
      </trkpt>
      <trkpt lat="45.856041" lon="8.638856">
        <ele>223.504686</ele>
        <time>2024-09-02T08:37:51.307Z</time>
      </trkpt>
      <trkpt lat="45.856076" lon="8.638633">
        <ele>224.087786</ele>
        <time>2024-09-02T08:37:56.491Z</time>
      </trkpt>
      <trkpt lat="45.856142" lon="8.638452">
        <ele>224.608937</ele>
        <time>2024-09-02T08:38:00.778Z</time>
      </trkpt>
      <trkpt lat="45.856459" lon="8.637855">
        <ele>224.632839</ele>
        <time>2024-09-02T08:38:13.641Z</time>
      </trkpt>
      <trkpt lat="45.857046" lon="8.636761">
        <ele>224.610838</ele>
        <time>2024-09-02T08:38:37.457Z</time>
      </trkpt>
      <trkpt lat="45.857441" lon="8.636052">
        <ele>224.932149</ele>
        <time>2024-09-02T08:38:57.214Z</time>
      </trkpt>
      <trkpt lat="45.857442" lon="8.635894">
        <ele>225.049356</ele>
        <time>2024-09-02T08:39:00.184Z</time>
      </trkpt>
      <trkpt lat="45.857610" lon="8.635776">
        <ele>225.248555</ele>
        <time>2024-09-02T08:39:07.062Z</time>
      </trkpt>
      <trkpt lat="45.858194" lon="8.635352">
        <ele>225.945570</ele>
        <time>2024-09-02T08:39:29.250Z</time>
      </trkpt>
      <trkpt lat="45.858293" lon="8.635311">
        <ele>226.055314</ele>
        <time>2024-09-02T08:39:32.971Z</time>
      </trkpt>
      <trkpt lat="45.858869" lon="8.635552">
        <ele>226.684823</ele>
        <time>2024-09-02T08:39:54.319Z</time>
      </trkpt>
      <trkpt lat="45.859157" lon="8.635543">
        <ele>226.974995</ele>
        <time>2024-09-02T08:40:04.400Z</time>
      </trkpt>
      <trkpt lat="45.859442" lon="8.635425">
        <ele>227.273771</ele>
        <time>2024-09-02T08:40:13.203Z</time>
      </trkpt>
      <trkpt lat="45.859585" lon="8.635322">
        <ele>227.434922</ele>
        <time>2024-09-02T08:40:18.422Z</time>
      </trkpt>
      <trkpt lat="45.859727" lon="8.635220">
        <ele>227.594857</ele>
        <time>2024-09-02T08:40:23.383Z</time>
      </trkpt>
      <trkpt lat="45.860069" lon="8.634891">
        <ele>228.009518</ele>
        <time>2024-09-02T08:40:37.011Z</time>
      </trkpt>
      <trkpt lat="45.860594" lon="8.634202">
        <ele>229.112849</ele>
        <time>2024-09-02T08:40:59.337Z</time>
      </trkpt>
      <trkpt lat="45.860352" lon="8.633129">
        <ele>230.679013</ele>
        <time>2024-09-02T08:41:40.692Z</time>
      </trkpt>
      <trkpt lat="45.860416" lon="8.632347">
        <ele>231.772379</ele>
        <time>2024-09-02T08:42:16.890Z</time>
      </trkpt>
      <trkpt lat="45.860403" lon="8.631834">
        <ele>232.293426</ele>
        <time>2024-09-02T08:42:41.426Z</time>
      </trkpt>
      <trkpt lat="45.860358" lon="8.631406">
        <ele>232.691486</ele>
        <time>2024-09-02T08:42:59.518Z</time>
      </trkpt>
      <trkpt lat="45.860345" lon="8.630996">
        <ele>233.068923</ele>
        <time>2024-09-02T08:43:14.817Z</time>
      </trkpt>
      <trkpt lat="45.860248" lon="8.630688">
        <ele>233.379785</ele>
        <time>2024-09-02T08:43:26.448Z</time>
      </trkpt>
      <trkpt lat="45.860249" lon="8.630346">
        <ele>233.694300</ele>
        <time>2024-09-02T08:43:37.313Z</time>
      </trkpt>
      <trkpt lat="45.860482" lon="8.629904">
        <ele>234.204094</ele>
        <time>2024-09-02T08:43:54.236Z</time>
      </trkpt>
      <trkpt lat="45.860482" lon="8.629904">
        <ele>234.204094</ele>
        <time>2024-09-02T08:43:54.253Z</time>
      </trkpt>
      <trkpt lat="45.860723" lon="8.629630">
        <ele>233.915698</ele>
        <time>2024-09-02T08:44:07.376Z</time>
      </trkpt>
      <trkpt lat="45.861104" lon="8.629283">
        <ele>233.208595</ele>
        <time>2024-09-02T08:44:26.176Z</time>
      </trkpt>
      <trkpt lat="45.861480" lon="8.628689">
        <ele>232.332485</ele>
        <time>2024-09-02T08:44:47.588Z</time>
      </trkpt>
      <trkpt lat="45.861967" lon="8.627754">
        <ele>230.852282</ele>
        <time>2024-09-02T08:45:19.215Z</time>
      </trkpt>
      <trkpt lat="45.862298" lon="8.627298">
        <ele>229.777156</ele>
        <time>2024-09-02T08:45:37.039Z</time>
      </trkpt>
      <trkpt lat="45.862880" lon="8.626767">
        <ele>228.160964</ele>
        <time>2024-09-02T08:46:03.590Z</time>
      </trkpt>
      <trkpt lat="45.863037" lon="8.627256">
        <ele>227.282059</ele>
        <time>2024-09-02T08:46:17.756Z</time>
      </trkpt>
      <trkpt lat="45.863157" lon="8.627394">
        <ele>226.848556</ele>
        <time>2024-09-02T08:46:23.486Z</time>
      </trkpt>
      <trkpt lat="45.863316" lon="8.627345">
        <ele>226.384414</ele>
        <time>2024-09-02T08:46:29.667Z</time>
      </trkpt>
      <trkpt lat="45.863563" lon="8.627373">
        <ele>225.677245</ele>
        <time>2024-09-02T08:46:38.785Z</time>
      </trkpt>
      <trkpt lat="45.864133" lon="8.627726">
        <ele>223.905542</ele>
        <time>2024-09-02T08:47:01.547Z</time>
      </trkpt>
      <trkpt lat="45.864419" lon="8.627848">
        <ele>223.054002</ele>
        <time>2024-09-02T08:47:12.408Z</time>
      </trkpt>
      <trkpt lat="45.864626" lon="8.627848">
        <ele>222.463193</ele>
        <time>2024-09-02T08:47:20.290Z</time>
      </trkpt>
      <trkpt lat="45.864977" lon="8.627699">
        <ele>221.891266</ele>
        <time>2024-09-02T08:47:34.620Z</time>
      </trkpt>
      <trkpt lat="45.865904" lon="8.626776">
        <ele>220.828600</ele>
        <time>2024-09-02T08:48:22.147Z</time>
      </trkpt>
      <trkpt lat="45.866637" lon="8.626171">
        <ele>220.299489</ele>
        <time>2024-09-02T08:48:59.181Z</time>
      </trkpt>
      <trkpt lat="45.867013" lon="8.625901">
        <ele>220.169752</ele>
        <time>2024-09-02T08:49:17.473Z</time>
      </trkpt>
      <trkpt lat="45.867149" lon="8.625826">
        <ele>220.124792</ele>
        <time>2024-09-02T08:49:23.800Z</time>
      </trkpt>
      <trkpt lat="45.867364" lon="8.625836">
        <ele>220.058405</ele>
        <time>2024-09-02T08:49:33.025Z</time>
      </trkpt>
      <trkpt lat="45.867688" lon="8.625724">
        <ele>219.955558</ele>
        <time>2024-09-02T08:49:47.386Z</time>
      </trkpt>
      <trkpt lat="45.868355" lon="8.625296">
        <ele>219.836097</ele>
        <time>2024-09-02T08:50:19.095Z</time>
      </trkpt>
      <trkpt lat="45.868349" lon="8.625233">
        <ele>219.832452</ele>
        <time>2024-09-02T08:50:20.253Z</time>
      </trkpt>
      <trkpt lat="45.868704" lon="8.625161">
        <ele>219.802940</ele>
        <time>2024-09-02T08:50:35.971Z</time>
      </trkpt>
      <trkpt lat="45.869075" lon="8.625039">
        <ele>219.771611</ele>
        <time>2024-09-02T08:50:52.836Z</time>
      </trkpt>
      <trkpt lat="45.869255" lon="8.624984">
        <ele>219.756463</ele>
        <time>2024-09-02T08:51:01.073Z</time>
      </trkpt>
      <trkpt lat="45.869539" lon="8.624816">
        <ele>219.731180</ele>
        <time>2024-09-02T08:51:14.897Z</time>
      </trkpt>
      <trkpt lat="45.870170" lon="8.624340">
        <ele>220.560776</ele>
        <time>2024-09-02T08:51:47.548Z</time>
      </trkpt>
      <trkpt lat="45.871226" lon="8.623997">
        <ele>221.935265</ele>
        <time>2024-09-02T08:52:44.251Z</time>
      </trkpt>
      <trkpt lat="45.871747" lon="8.623984">
        <ele>224.225027</ele>
        <time>2024-09-02T08:53:18.737Z</time>
      </trkpt>
      <trkpt lat="45.872119" lon="8.623800">
        <ele>226.110598</ele>
        <time>2024-09-02T08:53:48.378Z</time>
      </trkpt>
      <trkpt lat="45.872311" lon="8.623102">
        <ele>228.614879</ele>
        <time>2024-09-02T08:54:21.165Z</time>
      </trkpt>
      <trkpt lat="45.873041" lon="8.622150">
        <ele>232.848279</ele>
        <time>2024-09-02T08:55:21.100Z</time>
      </trkpt>
      <trkpt lat="45.873357" lon="8.621712">
        <ele>234.570769</ele>
        <time>2024-09-02T08:55:44.115Z</time>
      </trkpt>
      <trkpt lat="45.873475" lon="8.621397">
        <ele>235.547606</ele>
        <time>2024-09-02T08:55:55.847Z</time>
      </trkpt>
      <trkpt lat="45.873673" lon="8.621003">
        <ele>236.874572</ele>
        <time>2024-09-02T08:56:10.356Z</time>
      </trkpt>
      <trkpt lat="45.873706" lon="8.620976">
        <ele>237.023536</ele>
        <time>2024-09-02T08:56:11.857Z</time>
      </trkpt>
      <trkpt lat="45.874084" lon="8.621093">
        <ele>237.877741</ele>
        <time>2024-09-02T08:56:27.105Z</time>
      </trkpt>
      <trkpt lat="45.874167" lon="8.621093">
        <ele>237.951152</ele>
        <time>2024-09-02T08:56:29.801Z</time>
      </trkpt>
      <trkpt lat="45.874319" lon="8.621092">
        <ele>238.085594</ele>
        <time>2024-09-02T08:56:34.686Z</time>
      </trkpt>
      <trkpt lat="45.874382" lon="8.621048">
        <ele>238.147554</ele>
        <time>2024-09-02T08:56:37.035Z</time>
      </trkpt>
      <trkpt lat="45.874746" lon="8.620790">
        <ele>238.506571</ele>
        <time>2024-09-02T08:56:48.709Z</time>
      </trkpt>
      <trkpt lat="45.874832" lon="8.620770">
        <ele>238.583627</ele>
        <time>2024-09-02T08:56:50.972Z</time>
      </trkpt>
      <trkpt lat="45.875511" lon="8.621052">
        <ele>239.208789</ele>
        <time>2024-09-02T08:57:11.119Z</time>
      </trkpt>
      <trkpt lat="45.875709" lon="8.621134">
        <ele>239.421598</ele>
        <time>2024-09-02T08:57:17.313Z</time>
      </trkpt>
      <trkpt lat="45.875970" lon="8.621252">
        <ele>239.727717</ele>
        <time>2024-09-02T08:57:26.143Z</time>
      </trkpt>
      <trkpt lat="45.876447" lon="8.621462">
        <ele>240.285869</ele>
        <time>2024-09-02T08:57:43.767Z</time>
      </trkpt>
      <trkpt lat="45.876618" lon="8.621526">
        <ele>240.483564</ele>
        <time>2024-09-02T08:57:49.917Z</time>
      </trkpt>
      <trkpt lat="45.877021" lon="8.621393">
        <ele>240.946171</ele>
        <time>2024-09-02T08:58:04.148Z</time>
      </trkpt>
      <trkpt lat="45.877210" lon="8.621348">
        <ele>241.160502</ele>
        <time>2024-09-02T08:58:10.386Z</time>
      </trkpt>
      <trkpt lat="45.877326" lon="8.621262">
        <ele>241.312209</ele>
        <time>2024-09-02T08:58:14.755Z</time>
      </trkpt>
      <trkpt lat="45.877551" lon="8.620994">
        <ele>241.738907</ele>
        <time>2024-09-02T08:58:24.797Z</time>
      </trkpt>
      <trkpt lat="45.877688" lon="8.620739">
        <ele>242.066262</ele>
        <time>2024-09-02T08:58:32.899Z</time>
      </trkpt>
      <trkpt lat="45.877767" lon="8.620661">
        <ele>242.206205</ele>
        <time>2024-09-02T08:58:36.058Z</time>
      </trkpt>
      <trkpt lat="45.878591" lon="8.620001">
        <ele>243.583468</ele>
        <time>2024-09-02T08:59:09.621Z</time>
      </trkpt>
      <trkpt lat="45.878803" lon="8.619836">
        <ele>243.940469</ele>
        <time>2024-09-02T08:59:18.415Z</time>
      </trkpt>
      <trkpt lat="45.879320" lon="8.619460">
        <ele>244.980742</ele>
        <time>2024-09-02T08:59:40.065Z</time>
      </trkpt>
      <trkpt lat="45.879652" lon="8.619412">
        <ele>245.579744</ele>
        <time>2024-09-02T08:59:52.496Z</time>
      </trkpt>
      <trkpt lat="45.880274" lon="8.619378">
        <ele>246.697139</ele>
        <time>2024-09-02T09:00:15.709Z</time>
      </trkpt>
      <trkpt lat="45.880281" lon="8.619378">
        <ele>246.709705</ele>
        <time>2024-09-02T09:00:15.951Z</time>
      </trkpt>
      <trkpt lat="45.881119" lon="8.619391">
        <ele>248.907216</ele>
        <time>2024-09-02T09:00:48.743Z</time>
      </trkpt>
      <trkpt lat="45.881450" lon="8.619414">
        <ele>249.886852</ele>
        <time>2024-09-02T09:01:02.991Z</time>
      </trkpt>
      <trkpt lat="45.882104" lon="8.619573">
        <ele>251.847680</ele>
        <time>2024-09-02T09:01:33.940Z</time>
      </trkpt>
      <trkpt lat="45.882466" lon="8.619540">
        <ele>253.370939</ele>
        <time>2024-09-02T09:01:52.228Z</time>
      </trkpt>
      <trkpt lat="45.882712" lon="8.619411">
        <ele>254.903426</ele>
        <time>2024-09-02T09:02:06.128Z</time>
      </trkpt>
      <trkpt lat="45.882895" lon="8.619102">
        <ele>256.556095</ele>
        <time>2024-09-02T09:02:22.311Z</time>
      </trkpt>
      <trkpt lat="45.883109" lon="8.618870">
        <ele>258.125002</ele>
        <time>2024-09-02T09:02:38.401Z</time>
      </trkpt>
      <trkpt lat="45.883084" lon="8.618299">
        <ele>260.455656</ele>
        <time>2024-09-02T09:03:11.261Z</time>
      </trkpt>
      <trkpt lat="45.883132" lon="8.617704">
        <ele>262.895702</ele>
        <time>2024-09-02T09:03:48.841Z</time>
      </trkpt>
      <trkpt lat="45.883198" lon="8.617370">
        <ele>264.810874</ele>
        <time>2024-09-02T09:04:11.832Z</time>
      </trkpt>
      <trkpt lat="45.883226" lon="8.616758">
        <ele>268.253687</ele>
        <time>2024-09-02T09:04:53.342Z</time>
      </trkpt>
      <trkpt lat="45.883266" lon="8.616554">
        <ele>269.443380</ele>
        <time>2024-09-02T09:05:07.951Z</time>
      </trkpt>
      <trkpt lat="45.883347" lon="8.616020">
        <ele>272.511268</ele>
        <time>2024-09-02T09:05:44.819Z</time>
      </trkpt>
      <trkpt lat="45.883707" lon="8.615312">
        <ele>277.432855</ele>
        <time>2024-09-02T09:06:40.798Z</time>
      </trkpt>
      <trkpt lat="45.883843" lon="8.614541">
        <ele>280.128743</ele>
        <time>2024-09-02T09:07:27.410Z</time>
      </trkpt>
      <trkpt lat="45.884045" lon="8.613691">
        <ele>283.147634</ele>
        <time>2024-09-02T09:08:15.186Z</time>
      </trkpt>
      <trkpt lat="45.884277" lon="8.612999">
        <ele>285.729252</ele>
        <time>2024-09-02T09:08:48.854Z</time>
      </trkpt>
      <trkpt lat="45.884742" lon="8.611918">
        <ele>286.918065</ele>
        <time>2024-09-02T09:09:35.290Z</time>
      </trkpt>
      <trkpt lat="45.884801" lon="8.612005">
        <ele>286.997479</ele>
        <time>2024-09-02T09:09:39.109Z</time>
      </trkpt>
      <trkpt lat="45.884911" lon="8.612085">
        <ele>287.113283</ele>
        <time>2024-09-02T09:09:44.956Z</time>
      </trkpt>
      <trkpt lat="45.885162" lon="8.612390">
        <ele>287.422066</ele>
        <time>2024-09-02T09:10:00.468Z</time>
      </trkpt>
      <trkpt lat="45.885600" lon="8.612699">
        <ele>287.847010</ele>
        <time>2024-09-02T09:10:23.281Z</time>
      </trkpt>
      <trkpt lat="45.885762" lon="8.612938">
        <ele>287.644875</ele>
        <time>2024-09-02T09:10:33.673Z</time>
      </trkpt>
      <trkpt lat="45.885907" lon="8.613096">
        <ele>287.486454</ele>
        <time>2024-09-02T09:10:41.672Z</time>
      </trkpt>
      <trkpt lat="45.885938" lon="8.613131">
        <ele>287.452133</ele>
        <time>2024-09-02T09:10:43.342Z</time>
      </trkpt>
      <trkpt lat="45.886091" lon="8.613104">
        <ele>287.317948</ele>
        <time>2024-09-02T09:10:50.018Z</time>
      </trkpt>
      <trkpt lat="45.886336" lon="8.612938">
        <ele>287.082150</ele>
        <time>2024-09-02T09:11:01.775Z</time>
      </trkpt>
      <trkpt lat="45.886652" lon="8.613017">
        <ele>286.802944</ele>
        <time>2024-09-02T09:11:15.748Z</time>
      </trkpt>
      <trkpt lat="45.886935" lon="8.613020">
        <ele>286.556591</ele>
        <time>2024-09-02T09:11:27.443Z</time>
      </trkpt>
      <trkpt lat="45.887018" lon="8.612939">
        <ele>286.469247</ele>
        <time>2024-09-02T09:11:31.592Z</time>
      </trkpt>
      <trkpt lat="45.887098" lon="8.612944">
        <ele>286.399543</ele>
        <time>2024-09-02T09:11:34.824Z</time>
      </trkpt>
      <trkpt lat="45.887350" lon="8.612857">
        <ele>285.482916</ele>
        <time>2024-09-02T09:11:44.641Z</time>
      </trkpt>
      <trkpt lat="45.887632" lon="8.612915">
        <ele>283.846783</ele>
        <time>2024-09-02T09:11:54.843Z</time>
      </trkpt>
      <trkpt lat="45.888132" lon="8.613018">
        <ele>280.945746</ele>
        <time>2024-09-02T09:12:12.022Z</time>
      </trkpt>
      <trkpt lat="45.888196" lon="8.612534">
        <ele>278.976249</ele>
        <time>2024-09-02T09:12:23.134Z</time>
      </trkpt>
      <trkpt lat="45.888244" lon="8.612173">
        <ele>277.506983</ele>
        <time>2024-09-02T09:12:31.338Z</time>
      </trkpt>
      <trkpt lat="45.888424" lon="8.611870">
        <ele>275.921910</ele>
        <time>2024-09-02T09:12:40.160Z</time>
      </trkpt>
      <trkpt lat="45.888437" lon="8.611760">
        <ele>275.538605</ele>
        <time>2024-09-02T09:12:42.744Z</time>
      </trkpt>
      <trkpt lat="45.888451" lon="8.611640">
        <ele>275.120604</ele>
        <time>2024-09-02T09:12:45.493Z</time>
      </trkpt>
      <trkpt lat="45.888448" lon="8.611456">
        <ele>274.488312</ele>
        <time>2024-09-02T09:12:49.536Z</time>
      </trkpt>
      <trkpt lat="45.888411" lon="8.611307">
        <ele>273.944835</ele>
        <time>2024-09-02T09:12:53.156Z</time>
      </trkpt>
      <trkpt lat="45.888178" lon="8.611162">
        <ele>272.691599</ele>
        <time>2024-09-02T09:13:01.399Z</time>
      </trkpt>
      <trkpt lat="45.888075" lon="8.611011">
        <ele>271.965283</ele>
        <time>2024-09-02T09:13:06.380Z</time>
      </trkpt>
      <trkpt lat="45.888181" lon="8.610748">
        <ele>270.921225</ele>
        <time>2024-09-02T09:13:13.367Z</time>
      </trkpt>
      <trkpt lat="45.888292" lon="8.610815">
        <ele>270.326991</ele>
        <time>2024-09-02T09:13:17.603Z</time>
      </trkpt>
      <trkpt lat="45.888595" lon="8.610995">
        <ele>268.708714</ele>
        <time>2024-09-02T09:13:29.192Z</time>
      </trkpt>
      <trkpt lat="45.888974" lon="8.611433">
        <ele>267.747569</ele>
        <time>2024-09-02T09:13:49.039Z</time>
      </trkpt>
      <trkpt lat="45.889323" lon="8.611642">
        <ele>269.317376</ele>
        <time>2024-09-02T09:14:09.607Z</time>
      </trkpt>
      <trkpt lat="45.889420" lon="8.611776">
        <ele>269.876068</ele>
        <time>2024-09-02T09:14:17.909Z</time>
      </trkpt>
      <trkpt lat="45.889706" lon="8.611905">
        <ele>271.120617</ele>
        <time>2024-09-02T09:14:40.601Z</time>
      </trkpt>
      <trkpt lat="45.889773" lon="8.612044">
        <ele>271.609213</ele>
        <time>2024-09-02T09:14:49.805Z</time>
      </trkpt>
      <trkpt lat="45.890227" lon="8.612052">
        <ele>273.494258</ele>
        <time>2024-09-02T09:15:27.186Z</time>
      </trkpt>
      <trkpt lat="45.890542" lon="8.612152">
        <ele>274.979736</ele>
        <time>2024-09-02T09:15:56.802Z</time>
      </trkpt>
      <trkpt lat="45.891185" lon="8.612581">
        <ele>279.480498</ele>
        <time>2024-09-02T09:17:06.008Z</time>
      </trkpt>
      <trkpt lat="45.891429" lon="8.612645">
        <ele>281.055135</ele>
        <time>2024-09-02T09:17:27.512Z</time>
      </trkpt>
      <trkpt lat="45.891498" lon="8.612716">
        <ele>281.593938</ele>
        <time>2024-09-02T09:17:33.648Z</time>
      </trkpt>
      <trkpt lat="45.891831" lon="8.612937">
        <ele>283.922632</ele>
        <time>2024-09-02T09:17:55.516Z</time>
      </trkpt>
      <trkpt lat="45.891745" lon="8.613233">
        <ele>285.339934</ele>
        <time>2024-09-02T09:18:08.476Z</time>
      </trkpt>
      <trkpt lat="45.892010" lon="8.613421">
        <ele>285.807180</ele>
        <time>2024-09-02T09:18:22.472Z</time>
      </trkpt>
      <trkpt lat="45.892198" lon="8.612972">
        <ele>285.491741</ele>
        <time>2024-09-02T09:18:36.068Z</time>
      </trkpt>
      <trkpt lat="45.892612" lon="8.612265">
        <ele>284.935534</ele>
        <time>2024-09-02T09:18:52.451Z</time>
      </trkpt>
      <trkpt lat="45.893325" lon="8.611775">
        <ele>283.358363</ele>
        <time>2024-09-02T09:19:07.316Z</time>
      </trkpt>
      <trkpt lat="45.893592" lon="8.611457">
        <ele>281.467768</ele>
        <time>2024-09-02T09:19:13.900Z</time>
      </trkpt>
      <trkpt lat="45.893886" lon="8.611211">
        <ele>279.613071</ele>
        <time>2024-09-02T09:19:20.328Z</time>
      </trkpt>
      <trkpt lat="45.894673" lon="8.610784">
        <ele>275.027081</ele>
        <time>2024-09-02T09:19:36.082Z</time>
      </trkpt>
      <trkpt lat="45.895423" lon="8.610601">
        <ele>269.520408</ele>
        <time>2024-09-02T09:19:50.061Z</time>
      </trkpt>
      <trkpt lat="45.895555" lon="8.610455">
        <ele>268.281777</ele>
        <time>2024-09-02T09:19:53.059Z</time>
      </trkpt>
      <trkpt lat="45.896525" lon="8.609883">
        <ele>260.307536</ele>
        <time>2024-09-02T09:20:11.437Z</time>
      </trkpt>
      <trkpt lat="45.897063" lon="8.609561">
        <ele>254.954014</ele>
        <time>2024-09-02T09:20:21.369Z</time>
      </trkpt>
      <trkpt lat="45.897132" lon="8.609438">
        <ele>253.944053</ele>
        <time>2024-09-02T09:20:23.230Z</time>
      </trkpt>
      <trkpt lat="45.897145" lon="8.609416">
        <ele>253.759554</ele>
        <time>2024-09-02T09:20:23.577Z</time>
      </trkpt>
      <trkpt lat="45.897293" lon="8.608807">
        <ele>249.635794</ele>
        <time>2024-09-02T09:20:31.207Z</time>
      </trkpt>
      <trkpt lat="45.897395" lon="8.608383">
        <ele>246.767880</ele>
        <time>2024-09-02T09:20:36.612Z</time>
      </trkpt>
      <trkpt lat="45.897623" lon="8.607361">
        <ele>241.984275</ele>
        <time>2024-09-02T09:20:49.839Z</time>
      </trkpt>
      <trkpt lat="45.897620" lon="8.607235">
        <ele>241.526223</ele>
        <time>2024-09-02T09:20:51.436Z</time>
      </trkpt>
      <trkpt lat="45.897575" lon="8.607131">
        <ele>241.081292</ele>
        <time>2024-09-02T09:20:53.006Z</time>
      </trkpt>
      <trkpt lat="45.897459" lon="8.607031">
        <ele>240.375080</ele>
        <time>2024-09-02T09:20:55.501Z</time>
      </trkpt>
      <trkpt lat="45.896921" lon="8.606825">
        <ele>237.468408</ele>
        <time>2024-09-02T09:21:06.079Z</time>
      </trkpt>
      <trkpt lat="45.896841" lon="8.606695">
        <ele>236.837920</ele>
        <time>2024-09-02T09:21:08.540Z</time>
      </trkpt>
      <trkpt lat="45.896843" lon="8.606596">
        <ele>236.478075</ele>
        <time>2024-09-02T09:21:09.991Z</time>
      </trkpt>
      <trkpt lat="45.896976" lon="8.605887">
        <ele>235.379838</ele>
        <time>2024-09-02T09:21:21.793Z</time>
      </trkpt>
      <trkpt lat="45.896952" lon="8.605443">
        <ele>235.433669</ele>
        <time>2024-09-02T09:21:30.993Z</time>
      </trkpt>
      <trkpt lat="45.896953" lon="8.604808">
        <ele>235.510425</ele>
        <time>2024-09-02T09:21:43.933Z</time>
      </trkpt>
      <trkpt lat="45.896893" lon="8.604814">
        <ele>235.520872</ele>
        <time>2024-09-02T09:21:46.820Z</time>
      </trkpt>
      <trkpt lat="45.896471" lon="8.605114">
        <ele>235.602647</ele>
        <time>2024-09-02T09:22:09.390Z</time>
      </trkpt>
      <trkpt lat="45.896318" lon="8.605149">
        <ele>235.629556</ele>
        <time>2024-09-02T09:22:17.296Z</time>
      </trkpt>
      <trkpt lat="45.896166" lon="8.605272">
        <ele>235.964571</ele>
        <time>2024-09-02T09:22:26.703Z</time>
      </trkpt>
      <trkpt lat="45.896098" lon="8.605326">
        <ele>236.204499</ele>
        <time>2024-09-02T09:22:30.860Z</time>
      </trkpt>
      <trkpt lat="45.895982" lon="8.605361">
        <ele>236.570533</ele>
        <time>2024-09-02T09:22:37.666Z</time>
      </trkpt>
      <trkpt lat="45.895892" lon="8.605347">
        <ele>236.850087</ele>
        <time>2024-09-02T09:22:43.142Z</time>
      </trkpt>
      <trkpt lat="45.895795" lon="8.605556">
        <ele>237.389991</ele>
        <time>2024-09-02T09:22:53.741Z</time>
      </trkpt>
      <trkpt lat="45.895433" lon="8.605787">
        <ele>238.613174</ele>
        <time>2024-09-02T09:23:20.184Z</time>
      </trkpt>
      <trkpt lat="45.895359" lon="8.605949">
        <ele>239.029645</ele>
        <time>2024-09-02T09:23:29.714Z</time>
      </trkpt>
      <trkpt lat="45.895254" lon="8.606021">
        <ele>239.388930</ele>
        <time>2024-09-02T09:23:37.435Z</time>
      </trkpt>
      <trkpt lat="45.895131" lon="8.606056">
        <ele>239.776144</ele>
        <time>2024-09-02T09:23:45.830Z</time>
      </trkpt>
      <trkpt lat="45.894937" lon="8.606055">
        <ele>240.375242</ele>
        <time>2024-09-02T09:23:58.860Z</time>
      </trkpt>
      <trkpt lat="45.894826" lon="8.605998">
        <ele>240.739256</ele>
        <time>2024-09-02T09:24:06.338Z</time>
      </trkpt>
      <trkpt lat="45.894674" lon="8.606003">
        <ele>241.213389</ele>
        <time>2024-09-02T09:24:16.614Z</time>
      </trkpt>
      <trkpt lat="45.894601" lon="8.606031">
        <ele>241.531752</ele>
        <time>2024-09-02T09:24:21.505Z</time>
      </trkpt>
      <trkpt lat="45.894477" lon="8.606138">
        <ele>242.141219</ele>
        <time>2024-09-02T09:24:30.815Z</time>
      </trkpt>
      <trkpt lat="45.894354" lon="8.606160">
        <ele>242.663490</ele>
        <time>2024-09-02T09:24:39.215Z</time>
      </trkpt>
      <trkpt lat="45.894175" lon="8.606053">
        <ele>243.480391</ele>
        <time>2024-09-02T09:24:52.544Z</time>
      </trkpt>
      <trkpt lat="45.894115" lon="8.605951">
        <ele>243.872043</ele>
        <time>2024-09-02T09:24:58.995Z</time>
      </trkpt>
      <trkpt lat="45.894070" lon="8.605930">
        <ele>244.071405</ele>
        <time>2024-09-02T09:25:02.334Z</time>
      </trkpt>
      <trkpt lat="45.893895" lon="8.606080">
        <ele>244.930025</ele>
        <time>2024-09-02T09:25:16.883Z</time>
      </trkpt>
      <trkpt lat="45.893615" lon="8.606101">
        <ele>246.111434</ele>
        <time>2024-09-02T09:25:37.122Z</time>
      </trkpt>
      <trkpt lat="45.893615" lon="8.606101">
        <ele>246.111434</ele>
        <time>2024-09-02T09:25:37.152Z</time>
      </trkpt>
      <trkpt lat="45.893469" lon="8.605878">
        <ele>247.009284</ele>
        <time>2024-09-02T09:25:52.620Z</time>
      </trkpt>
      <trkpt lat="45.893398" lon="8.605822">
        <ele>247.350561</ele>
        <time>2024-09-02T09:25:58.512Z</time>
      </trkpt>
      <trkpt lat="45.893320" lon="8.605865">
        <ele>247.702583</ele>
        <time>2024-09-02T09:26:04.623Z</time>
      </trkpt>
      <trkpt lat="45.893181" lon="8.605828">
        <ele>248.298237</ele>
        <time>2024-09-02T09:26:14.756Z</time>
      </trkpt>
      <trkpt lat="45.893021" lon="8.605913">
        <ele>248.974180</ele>
        <time>2024-09-02T09:26:26.979Z</time>
      </trkpt>
      <trkpt lat="45.892804" lon="8.605860">
        <ele>249.737585</ele>
        <time>2024-09-02T09:26:42.209Z</time>
      </trkpt>
      <trkpt lat="45.892521" lon="8.605989">
        <ele>250.767309</ele>
        <time>2024-09-02T09:27:02.082Z</time>
      </trkpt>
      <trkpt lat="45.892341" lon="8.606015">
        <ele>251.394740</ele>
        <time>2024-09-02T09:27:13.632Z</time>
      </trkpt>
      <trkpt lat="45.892177" lon="8.605962">
        <ele>251.977742</ele>
        <time>2024-09-02T09:27:24.169Z</time>
      </trkpt>
      <trkpt lat="45.892028" lon="8.605822">
        <ele>252.595205</ele>
        <time>2024-09-02T09:27:35.320Z</time>
      </trkpt>
      <trkpt lat="45.891882" lon="8.605752">
        <ele>253.129018</ele>
        <time>2024-09-02T09:27:44.876Z</time>
      </trkpt>
      <trkpt lat="45.891680" lon="8.605602">
        <ele>253.917643</ele>
        <time>2024-09-02T09:27:59.299Z</time>
      </trkpt>
      <trkpt lat="45.891524" lon="8.605543">
        <ele>254.477121</ele>
        <time>2024-09-02T09:28:09.639Z</time>
      </trkpt>
      <trkpt lat="45.891386" lon="8.605597">
        <ele>254.973172</ele>
        <time>2024-09-02T09:28:18.866Z</time>
      </trkpt>
      <trkpt lat="45.891277" lon="8.605592">
        <ele>255.221875</ele>
        <time>2024-09-02T09:28:25.834Z</time>
      </trkpt>
      <trkpt lat="45.891132" lon="8.605677">
        <ele>255.557146</ele>
        <time>2024-09-02T09:28:35.909Z</time>
      </trkpt>
      <trkpt lat="45.891002" lon="8.605685">
        <ele>255.835714</ele>
        <time>2024-09-02T09:28:44.127Z</time>
      </trkpt>
      <trkpt lat="45.890783" lon="8.605611">
        <ele>256.317357</ele>
        <time>2024-09-02T09:28:58.018Z</time>
      </trkpt>
      <trkpt lat="45.890548" lon="8.605781">
        <ele>256.880636</ele>
        <time>2024-09-02T09:29:10.024Z</time>
      </trkpt>
      <trkpt lat="45.890073" lon="8.605742">
        <ele>257.899208</ele>
        <time>2024-09-02T09:29:29.766Z</time>
      </trkpt>
      <trkpt lat="45.889701" lon="8.605643">
        <ele>258.709159</ele>
        <time>2024-09-02T09:29:43.472Z</time>
      </trkpt>
      <trkpt lat="45.889550" lon="8.605345">
        <ele>258.831287</ele>
        <time>2024-09-02T09:29:51.834Z</time>
      </trkpt>
      <trkpt lat="45.889552" lon="8.605286">
        <ele>258.824077</ele>
        <time>2024-09-02T09:29:53.275Z</time>
      </trkpt>
      <trkpt lat="45.889574" lon="8.604729">
        <ele>258.755983</ele>
        <time>2024-09-02T09:30:06.522Z</time>
      </trkpt>
      <trkpt lat="45.889220" lon="8.604001">
        <ele>258.647591</ele>
        <time>2024-09-02T09:30:24.447Z</time>
      </trkpt>
      <trkpt lat="45.889214" lon="8.603929">
        <ele>258.638741</ele>
        <time>2024-09-02T09:30:25.933Z</time>
      </trkpt>
      <trkpt lat="45.889370" lon="8.603596">
        <ele>258.589748</ele>
        <time>2024-09-02T09:30:33.258Z</time>
      </trkpt>
      <trkpt lat="45.889154" lon="8.603689">
        <ele>258.550207</ele>
        <time>2024-09-02T09:30:38.566Z</time>
      </trkpt>
      <trkpt lat="45.888899" lon="8.603711">
        <ele>258.229634</ele>
        <time>2024-09-02T09:30:44.378Z</time>
      </trkpt>
      <trkpt lat="45.888489" lon="8.603699">
        <ele>257.694512</ele>
        <time>2024-09-02T09:30:53.530Z</time>
      </trkpt>
      <trkpt lat="45.888008" lon="8.603813">
        <ele>257.058369</ele>
        <time>2024-09-02T09:31:04.766Z</time>
      </trkpt>
      <trkpt lat="45.887192" lon="8.603682">
        <ele>256.036400</ele>
        <time>2024-09-02T09:31:24.413Z</time>
      </trkpt>
      <trkpt lat="45.886962" lon="8.604054">
        <ele>255.688806</ele>
        <time>2024-09-02T09:31:32.374Z</time>
      </trkpt>
      <trkpt lat="45.886640" lon="8.604773">
        <ele>255.091532</ele>
        <time>2024-09-02T09:31:46.124Z</time>
      </trkpt>
      <trkpt lat="45.885549" lon="8.604277">
        <ele>253.751342</ele>
        <time>2024-09-02T09:32:14.595Z</time>
      </trkpt>
      <trkpt lat="45.885483" lon="8.604233">
        <ele>253.647410</ele>
        <time>2024-09-02T09:32:17.694Z</time>
      </trkpt>
      <trkpt lat="45.885336" lon="8.604442">
        <ele>253.351984</ele>
        <time>2024-09-02T09:32:26.580Z</time>
      </trkpt>
      <trkpt lat="45.885264" lon="8.604715">
        <ele>253.061705</ele>
        <time>2024-09-02T09:32:35.106Z</time>
      </trkpt>
      <trkpt lat="45.884969" lon="8.604931">
        <ele>252.588744</ele>
        <time>2024-09-02T09:32:48.719Z</time>
      </trkpt>
      <trkpt lat="45.884621" lon="8.605247">
        <ele>252.000674</ele>
        <time>2024-09-02T09:33:04.851Z</time>
      </trkpt>
      <trkpt lat="45.884585" lon="8.605279">
        <ele>251.940203</ele>
        <time>2024-09-02T09:33:06.427Z</time>
      </trkpt>
      <trkpt lat="45.884118" lon="8.605511">
        <ele>249.837751</ele>
        <time>2024-09-02T09:33:24.280Z</time>
      </trkpt>
      <trkpt lat="45.883970" lon="8.605675">
        <ele>248.941321</ele>
        <time>2024-09-02T09:33:30.826Z</time>
      </trkpt>
      <trkpt lat="45.883769" lon="8.606103">
        <ele>247.217667</ele>
        <time>2024-09-02T09:33:43.020Z</time>
      </trkpt>
      <trkpt lat="45.883631" lon="8.606355">
        <ele>246.147231</ele>
        <time>2024-09-02T09:33:50.508Z</time>
      </trkpt>
      <trkpt lat="45.883333" lon="8.606497">
        <ele>244.641467</ele>
        <time>2024-09-02T09:34:01.216Z</time>
      </trkpt>
      <trkpt lat="45.883147" lon="8.606692">
        <ele>243.537127</ele>
        <time>2024-09-02T09:34:09.262Z</time>
      </trkpt>
      <trkpt lat="45.883104" lon="8.606737">
        <ele>243.281981</ele>
        <time>2024-09-02T09:34:11.023Z</time>
      </trkpt>
      <trkpt lat="45.882948" lon="8.606688">
        <ele>242.498009</ele>
        <time>2024-09-02T09:34:16.487Z</time>
      </trkpt>
      <trkpt lat="45.882833" lon="8.606566">
        <ele>241.794219</ele>
        <time>2024-09-02T09:34:21.485Z</time>
      </trkpt>
      <trkpt lat="45.882703" lon="8.606314">
        <ele>240.719323</ele>
        <time>2024-09-02T09:34:28.760Z</time>
      </trkpt>
      <trkpt lat="45.882572" lon="8.606058">
        <ele>239.630471</ele>
        <time>2024-09-02T09:34:36.151Z</time>
      </trkpt>
      <trkpt lat="45.882493" lon="8.605930">
        <ele>239.044231</ele>
        <time>2024-09-02T09:34:38.298Z</time>
      </trkpt>
      <trkpt lat="45.882227" lon="8.605677">
        <ele>237.473697</ele>
        <time>2024-09-02T09:34:44.135Z</time>
      </trkpt>
      <trkpt lat="45.882103" lon="8.605399">
        <ele>236.342182</ele>
        <time>2024-09-02T09:34:48.443Z</time>
      </trkpt>
      <trkpt lat="45.882078" lon="8.605184">
        <ele>235.595155</ele>
        <time>2024-09-02T09:34:51.412Z</time>
      </trkpt>
      <trkpt lat="45.881884" lon="8.604947">
        <ele>234.345422</ele>
        <time>2024-09-02T09:34:56.612Z</time>
      </trkpt>
      <trkpt lat="45.881753" lon="8.604772">
        <ele>234.243703</ele>
        <time>2024-09-02T09:35:00.625Z</time>
      </trkpt>
      <trkpt lat="45.881583" lon="8.604458">
        <ele>234.086249</ele>
        <time>2024-09-02T09:35:07.742Z</time>
      </trkpt>
      <trkpt lat="45.881484" lon="8.604212">
        <ele>233.973774</ele>
        <time>2024-09-02T09:35:13.293Z</time>
      </trkpt>
      <trkpt lat="45.881390" lon="8.604199">
        <ele>233.920079</ele>
        <time>2024-09-02T09:35:17.145Z</time>
      </trkpt>
      <trkpt lat="45.881080" lon="8.604220">
        <ele>233.743615</ele>
        <time>2024-09-02T09:35:25.787Z</time>
      </trkpt>
      <trkpt lat="45.880918" lon="8.604167">
        <ele>233.649142</ele>
        <time>2024-09-02T09:35:30.292Z</time>
      </trkpt>
      <trkpt lat="45.880845" lon="8.604172">
        <ele>233.607587</ele>
        <time>2024-09-02T09:35:31.931Z</time>
      </trkpt>
      <trkpt lat="45.880636" lon="8.604225">
        <ele>233.486911</ele>
        <time>2024-09-02T09:35:37.850Z</time>
      </trkpt>
      <trkpt lat="45.880452" lon="8.604351">
        <ele>233.371008</ele>
        <time>2024-09-02T09:35:42.678Z</time>
      </trkpt>
      <trkpt lat="45.880363" lon="8.604333">
        <ele>233.324975</ele>
        <time>2024-09-02T09:35:45.617Z</time>
      </trkpt>
      <trkpt lat="45.879935" lon="8.604365">
        <ele>233.453160</ele>
        <time>2024-09-02T09:35:58.624Z</time>
      </trkpt>
      <trkpt lat="45.879758" lon="8.605011">
        <ele>233.597713</ele>
        <time>2024-09-02T09:36:13.867Z</time>
      </trkpt>
      <trkpt lat="45.879584" lon="8.605247">
        <ele>233.669289</ele>
        <time>2024-09-02T09:36:22.289Z</time>
      </trkpt>
      <trkpt lat="45.879437" lon="8.605346">
        <ele>233.717849</ele>
        <time>2024-09-02T09:36:26.947Z</time>
      </trkpt>
      <trkpt lat="45.878563" lon="8.606098">
        <ele>234.226147</ele>
        <time>2024-09-02T09:36:52.857Z</time>
      </trkpt>
      <trkpt lat="45.877319" lon="8.607238">
        <ele>235.871994</ele>
        <time>2024-09-02T09:37:39.547Z</time>
      </trkpt>
      <trkpt lat="45.876892" lon="8.607577">
        <ele>237.661569</ele>
        <time>2024-09-02T09:38:02.956Z</time>
      </trkpt>
      <trkpt lat="45.876323" lon="8.607820">
        <ele>239.838981</ele>
        <time>2024-09-02T09:38:33.997Z</time>
      </trkpt>
      <trkpt lat="45.876248" lon="8.607530">
        <ele>240.629006</ele>
        <time>2024-09-02T09:38:45.455Z</time>
      </trkpt>
      <trkpt lat="45.876005" lon="8.606640">
        <ele>243.929539</ele>
        <time>2024-09-02T09:39:23.946Z</time>
      </trkpt>
      <trkpt lat="45.875896" lon="8.606484">
        <ele>244.841563</ele>
        <time>2024-09-02T09:39:33.271Z</time>
      </trkpt>
      <trkpt lat="45.875839" lon="8.606452">
        <ele>245.204297</ele>
        <time>2024-09-02T09:39:37.000Z</time>
      </trkpt>
      <trkpt lat="45.875787" lon="8.606422">
        <ele>245.536439</ele>
        <time>2024-09-02T09:39:40.415Z</time>
      </trkpt>
      <trkpt lat="45.875651" lon="8.606415">
        <ele>246.343043</ele>
        <time>2024-09-02T09:39:48.563Z</time>
      </trkpt>
      <trkpt lat="45.875945" lon="8.606115">
        <ele>248.480588</ele>
        <time>2024-09-02T09:40:11.252Z</time>
      </trkpt>
      <trkpt lat="45.877043" lon="8.603561">
        <ele>261.528444</ele>
        <time>2024-09-02T09:42:30.789Z</time>
      </trkpt>
      <trkpt lat="45.877126" lon="8.603038">
        <ele>263.827246</ele>
        <time>2024-09-02T09:42:55.710Z</time>
      </trkpt>
      <trkpt lat="45.877146" lon="8.602720">
        <ele>263.890078</ele>
        <time>2024-09-02T09:43:09.389Z</time>
      </trkpt>
      <trkpt lat="45.877093" lon="8.601448">
        <ele>264.140835</ele>
        <time>2024-09-02T09:43:50.853Z</time>
      </trkpt>
      <trkpt lat="45.877067" lon="8.600778">
        <ele>264.272885</ele>
        <time>2024-09-02T09:44:00.248Z</time>
      </trkpt>
      <trkpt lat="45.877048" lon="8.600483">
        <ele>264.331184</ele>
        <time>2024-09-02T09:44:04.004Z</time>
      </trkpt>
      <trkpt lat="45.876996" lon="8.600157">
        <ele>261.044948</ele>
        <time>2024-09-02T09:44:08.054Z</time>
      </trkpt>
      <trkpt lat="45.876855" lon="8.599543">
        <ele>254.646453</ele>
        <time>2024-09-02T09:44:15.626Z</time>
      </trkpt>
      <trkpt lat="45.876647" lon="8.598776">
        <ele>246.500269</ele>
        <time>2024-09-02T09:44:24.842Z</time>
      </trkpt>
      <trkpt lat="45.876663" lon="8.598474">
        <ele>243.502863</ele>
        <time>2024-09-02T09:44:28.179Z</time>
      </trkpt>
      <trkpt lat="45.876858" lon="8.598011">
        <ele>238.132079</ele>
        <time>2024-09-02T09:44:34.086Z</time>
      </trkpt>
      <trkpt lat="45.876774" lon="8.598014">
        <ele>236.907648</ele>
        <time>2024-09-02T09:44:44.698Z</time>
      </trkpt>
      <trkpt lat="45.876403" lon="8.598569">
        <ele>229.101846</ele>
        <time>2024-09-02T09:45:52.037Z</time>
      </trkpt>
      <trkpt lat="45.876378" lon="8.598531">
        <ele>228.571432</ele>
        <time>2024-09-02T09:45:56.644Z</time>
      </trkpt>
      <trkpt lat="45.876603" lon="8.597232">
        <ele>214.991120</ele>
        <time>2024-09-02T09:47:52.625Z</time>
      </trkpt>
      <trkpt lat="45.876582" lon="8.597156">
        <ele>214.161582</ele>
        <time>2024-09-02T09:47:59.685Z</time>
      </trkpt>
      <trkpt lat="45.876673" lon="8.597070">
        <ele>212.574240</ele>
        <time>2024-09-02T09:48:07.296Z</time>
      </trkpt>
      <trkpt lat="45.876686" lon="8.597110">
        <ele>212.707313</ele>
        <time>2024-09-02T09:48:09.426Z</time>
      </trkpt>
      <trkpt lat="45.876813" lon="8.596999">
        <ele>213.484249</ele>
        <time>2024-09-02T09:48:19.807Z</time>
      </trkpt>
      <trkpt lat="45.876995" lon="8.597004">
        <ele>214.435576</ele>
        <time>2024-09-02T09:48:32.455Z</time>
      </trkpt>
      <trkpt lat="45.877107" lon="8.596971">
        <ele>215.033089</ele>
        <time>2024-09-02T09:48:40.368Z</time>
      </trkpt>
      <trkpt lat="45.876995" lon="8.597004">
        <ele>215.630602</ele>
        <time>2024-09-02T09:48:48.281Z</time>
      </trkpt>
      <trkpt lat="45.876813" lon="8.596999">
        <ele>216.581930</ele>
        <time>2024-09-02T09:49:00.929Z</time>
      </trkpt>
      <trkpt lat="45.876686" lon="8.597110">
        <ele>217.358865</ele>
        <time>2024-09-02T09:49:11.310Z</time>
      </trkpt>
      <trkpt lat="45.876673" lon="8.597070">
        <ele>217.519480</ele>
        <time>2024-09-02T09:49:13.440Z</time>
      </trkpt>
      <trkpt lat="45.876582" lon="8.597156">
        <ele>218.088764</ele>
        <time>2024-09-02T09:49:21.051Z</time>
      </trkpt>
      <trkpt lat="45.876603" lon="8.597232">
        <ele>218.386269</ele>
        <time>2024-09-02T09:49:28.111Z</time>
      </trkpt>
      <trkpt lat="45.876378" lon="8.598531">
        <ele>226.372231</ele>
        <time>2024-09-02T09:51:24.091Z</time>
      </trkpt>
      <trkpt lat="45.876403" lon="8.598569">
        <ele>227.017363</ele>
        <time>2024-09-02T09:51:28.698Z</time>
      </trkpt>
      <trkpt lat="45.876774" lon="8.598014">
        <ele>236.511406</ele>
        <time>2024-09-02T09:52:36.037Z</time>
      </trkpt>
      <trkpt lat="45.876858" lon="8.598011">
        <ele>238.000657</ele>
        <time>2024-09-02T09:52:46.650Z</time>
      </trkpt>
      <trkpt lat="45.876663" lon="8.598474">
        <ele>244.677804</ele>
        <time>2024-09-02T09:53:43.213Z</time>
      </trkpt>
      <trkpt lat="45.876647" lon="8.598776">
        <ele>248.415058</ele>
        <time>2024-09-02T09:54:11.969Z</time>
      </trkpt>
      <trkpt lat="45.876855" lon="8.599543">
        <ele>256.600539</ele>
        <time>2024-09-02T09:55:21.356Z</time>
      </trkpt>
      <trkpt lat="45.876996" lon="8.600157">
        <ele>261.259921</ele>
        <time>2024-09-02T09:56:06.252Z</time>
      </trkpt>
      <trkpt lat="45.877048" lon="8.600483">
        <ele>263.670158</ele>
        <time>2024-09-02T09:56:28.218Z</time>
      </trkpt>
      <trkpt lat="45.877067" lon="8.600778">
        <ele>265.805192</ele>
        <time>2024-09-02T09:56:45.960Z</time>
      </trkpt>
      <trkpt lat="45.877093" lon="8.601448">
        <ele>270.641126</ele>
        <time>2024-09-02T09:57:21.345Z</time>
      </trkpt>
      <trkpt lat="45.876794" lon="8.601956">
        <ele>272.964657</ele>
        <time>2024-09-02T09:57:52.765Z</time>
      </trkpt>
      <trkpt lat="45.876283" lon="8.603593">
        <ele>275.190388</ele>
        <time>2024-09-02T09:58:56.894Z</time>
      </trkpt>
      <trkpt lat="45.875913" lon="8.604247">
        <ele>275.252028</ele>
        <time>2024-09-02T09:59:22.537Z</time>
      </trkpt>
      <trkpt lat="45.875458" lon="8.604751">
        <ele>274.538387</ele>
        <time>2024-09-02T09:59:46.041Z</time>
      </trkpt>
      <trkpt lat="45.874554" lon="8.605349">
        <ele>273.252040</ele>
        <time>2024-09-02T10:00:24.943Z</time>
      </trkpt>
      <trkpt lat="45.873409" lon="8.606021">
        <ele>271.072524</ele>
        <time>2024-09-02T10:01:14.050Z</time>
      </trkpt>
      <trkpt lat="45.873253" lon="8.605993">
        <ele>270.795503</ele>
        <time>2024-09-02T10:01:20.618Z</time>
      </trkpt>
      <trkpt lat="45.872648" lon="8.606488">
        <ele>268.796026</ele>
        <time>2024-09-02T10:01:48.012Z</time>
      </trkpt>
      <trkpt lat="45.872483" lon="8.606652">
        <ele>268.043231</ele>
        <time>2024-09-02T10:01:55.512Z</time>
      </trkpt>
      <trkpt lat="45.871978" lon="8.607152">
        <ele>265.742096</ele>
        <time>2024-09-02T10:02:18.266Z</time>
      </trkpt>
      <trkpt lat="45.871876" lon="8.607172">
        <ele>265.355879</ele>
        <time>2024-09-02T10:02:21.829Z</time>
      </trkpt>
      <trkpt lat="45.871647" lon="8.607217">
        <ele>264.488750</ele>
        <time>2024-09-02T10:02:29.808Z</time>
      </trkpt>
      <trkpt lat="45.871296" lon="8.607460">
        <ele>262.671757</ele>
        <time>2024-09-02T10:02:42.707Z</time>
      </trkpt>
      <trkpt lat="45.870847" lon="8.607637">
        <ele>259.627246</ele>
        <time>2024-09-02T10:02:58.000Z</time>
      </trkpt>
      <trkpt lat="45.870621" lon="8.607609">
        <ele>258.143987</ele>
        <time>2024-09-02T10:03:05.503Z</time>
      </trkpt>
      <trkpt lat="45.870578" lon="8.607674">
        <ele>257.735779</ele>
        <time>2024-09-02T10:03:06.661Z</time>
      </trkpt>
      <trkpt lat="45.870482" lon="8.607817">
        <ele>256.831392</ele>
        <time>2024-09-02T10:03:09.293Z</time>
      </trkpt>
      <trkpt lat="45.870368" lon="8.607923">
        <ele>255.943381</ele>
        <time>2024-09-02T10:03:11.908Z</time>
      </trkpt>
      <trkpt lat="45.870004" lon="8.608268">
        <ele>253.091672</ele>
        <time>2024-09-02T10:03:20.208Z</time>
      </trkpt>
      <trkpt lat="45.870058" lon="8.608701">
        <ele>251.260758</ele>
        <time>2024-09-02T10:03:26.068Z</time>
      </trkpt>
      <trkpt lat="45.870111" lon="8.608915">
        <ele>250.497933</ele>
        <time>2024-09-02T10:03:29.056Z</time>
      </trkpt>
      <trkpt lat="45.870081" lon="8.609205">
        <ele>249.513284</ele>
        <time>2024-09-02T10:03:32.938Z</time>
      </trkpt>
      <trkpt lat="45.870095" lon="8.609387">
        <ele>248.898322</ele>
        <time>2024-09-02T10:03:35.361Z</time>
      </trkpt>
      <trkpt lat="45.870291" lon="8.609649">
        <ele>247.606805</ele>
        <time>2024-09-02T10:03:40.514Z</time>
      </trkpt>
      <trkpt lat="45.870394" lon="8.609867">
        <ele>246.722013</ele>
        <time>2024-09-02T10:03:44.233Z</time>
      </trkpt>
      <trkpt lat="45.870654" lon="8.610029">
        <ele>245.354994</ele>
        <time>2024-09-02T10:03:49.864Z</time>
      </trkpt>
      <trkpt lat="45.870942" lon="8.610872">
        <ele>242.700138</ele>
        <time>2024-09-02T10:04:03.658Z</time>
      </trkpt>
      <trkpt lat="45.870745" lon="8.611104">
        <ele>242.178183</ele>
        <time>2024-09-02T10:04:09.120Z</time>
      </trkpt>
      <trkpt lat="45.870505" lon="8.610987">
        <ele>241.658916</ele>
        <time>2024-09-02T10:04:14.614Z</time>
      </trkpt>
      <trkpt lat="45.870389" lon="8.611020">
        <ele>241.416637</ele>
        <time>2024-09-02T10:04:17.150Z</time>
      </trkpt>
      <trkpt lat="45.870109" lon="8.611225">
        <ele>240.772731</ele>
        <time>2024-09-02T10:04:24.056Z</time>
      </trkpt>
      <trkpt lat="45.869974" lon="8.611309">
        <ele>240.471300</ele>
        <time>2024-09-02T10:04:27.224Z</time>
      </trkpt>
      <trkpt lat="45.869767" lon="8.611452">
        <ele>240.000686</ele>
        <time>2024-09-02T10:04:32.376Z</time>
      </trkpt>
      <trkpt lat="45.869687" lon="8.611448">
        <ele>239.836682</ele>
        <time>2024-09-02T10:04:34.211Z</time>
      </trkpt>
      <trkpt lat="45.869464" lon="8.611354">
        <ele>239.376447</ele>
        <time>2024-09-02T10:04:39.606Z</time>
      </trkpt>
      <trkpt lat="45.869191" lon="8.611171">
        <ele>239.189767</ele>
        <time>2024-09-02T10:04:46.719Z</time>
      </trkpt>
      <trkpt lat="45.868986" lon="8.611768">
        <ele>238.902570</ele>
        <time>2024-09-02T10:04:58.210Z</time>
      </trkpt>
      <trkpt lat="45.868945" lon="8.611787">
        <ele>238.875875</ele>
        <time>2024-09-02T10:04:59.312Z</time>
      </trkpt>
      <trkpt lat="45.868719" lon="8.612010">
        <ele>238.705969</ele>
        <time>2024-09-02T10:05:06.093Z</time>
      </trkpt>
      <trkpt lat="45.868613" lon="8.612163">
        <ele>238.612847</ele>
        <time>2024-09-02T10:05:09.917Z</time>
      </trkpt>
      <trkpt lat="45.868546" lon="8.612423">
        <ele>238.493232</ele>
        <time>2024-09-02T10:05:14.806Z</time>
      </trkpt>
      <trkpt lat="45.868641" lon="8.612721">
        <ele>238.351823</ele>
        <time>2024-09-02T10:05:24.577Z</time>
      </trkpt>
      <trkpt lat="45.868509" lon="8.613342">
        <ele>238.039267</ele>
        <time>2024-09-02T10:05:44.887Z</time>
      </trkpt>
      <trkpt lat="45.868511" lon="8.613515">
        <ele>237.952342</ele>
        <time>2024-09-02T10:05:50.929Z</time>
      </trkpt>
      <trkpt lat="45.868615" lon="8.614020">
        <ele>237.687770</ele>
        <time>2024-09-02T10:06:07.560Z</time>
      </trkpt>
      <trkpt lat="45.868630" lon="8.614561">
        <ele>237.415762</ele>
        <time>2024-09-02T10:06:24.197Z</time>
      </trkpt>
      <trkpt lat="45.868708" lon="8.614755">
        <ele>237.303217</ele>
        <time>2024-09-02T10:06:30.592Z</time>
      </trkpt>
      <trkpt lat="45.868828" lon="8.615377">
        <ele>236.978958</ele>
        <time>2024-09-02T10:06:48.739Z</time>
      </trkpt>
      <trkpt lat="45.868918" lon="8.615618">
        <ele>236.191962</ele>
        <time>2024-09-02T10:06:55.941Z</time>
      </trkpt>
      <trkpt lat="45.869015" lon="8.616128">
        <ele>234.594407</ele>
        <time>2024-09-02T10:07:09.221Z</time>
      </trkpt>
      <trkpt lat="45.869022" lon="8.616632">
        <ele>233.071139</ele>
        <time>2024-09-02T10:07:21.602Z</time>
      </trkpt>
      <trkpt lat="45.869116" lon="8.617426">
        <ele>230.637435</ele>
        <time>2024-09-02T10:07:40.980Z</time>
      </trkpt>
      <trkpt lat="45.869119" lon="8.617667">
        <ele>229.909077</ele>
        <time>2024-09-02T10:07:46.614Z</time>
      </trkpt>
      <trkpt lat="45.869046" lon="8.617960">
        <ele>228.982710</ele>
        <time>2024-09-02T10:07:53.859Z</time>
      </trkpt>
      <trkpt lat="45.868895" lon="8.618478">
        <ele>227.406356</ele>
        <time>2024-09-02T10:08:01.450Z</time>
      </trkpt>
      <trkpt lat="45.868865" lon="8.618590">
        <ele>227.069501</ele>
        <time>2024-09-02T10:08:03.081Z</time>
      </trkpt>
      <trkpt lat="45.868755" lon="8.618785">
        <ele>226.365028</ele>
        <time>2024-09-02T10:08:06.506Z</time>
      </trkpt>
      <trkpt lat="45.868310" lon="8.618724">
        <ele>224.562891</ele>
        <time>2024-09-02T10:08:15.298Z</time>
      </trkpt>
      <trkpt lat="45.868181" lon="8.618668">
        <ele>224.019598</ele>
        <time>2024-09-02T10:08:18.013Z</time>
      </trkpt>
      <trkpt lat="45.868047" lon="8.618610">
        <ele>223.455386</ele>
        <time>2024-09-02T10:08:20.940Z</time>
      </trkpt>
      <trkpt lat="45.867785" lon="8.618379">
        <ele>222.215985</ele>
        <time>2024-09-02T10:08:27.636Z</time>
      </trkpt>
      <trkpt lat="45.866874" lon="8.617172">
        <ele>220.566193</ele>
        <time>2024-09-02T10:08:56.842Z</time>
      </trkpt>
      <trkpt lat="45.866558" lon="8.616934">
        <ele>220.153141</ele>
        <time>2024-09-02T10:09:06.160Z</time>
      </trkpt>
      <trkpt lat="45.866554" lon="8.616933">
        <ele>220.148441</ele>
        <time>2024-09-02T10:09:06.259Z</time>
      </trkpt>
      <trkpt lat="45.866456" lon="8.616898">
        <ele>220.031542</ele>
        <time>2024-09-02T10:09:08.783Z</time>
      </trkpt>
      <trkpt lat="45.865827" lon="8.616015">
        <ele>218.993839</ele>
        <time>2024-09-02T10:09:29.171Z</time>
      </trkpt>
      <trkpt lat="45.865721" lon="8.615818">
        <ele>218.788383</ele>
        <time>2024-09-02T10:09:33.392Z</time>
      </trkpt>
      <trkpt lat="45.865617" lon="8.615644">
        <ele>218.599145</ele>
        <time>2024-09-02T10:09:36.922Z</time>
      </trkpt>
      <trkpt lat="45.865262" lon="8.615887">
        <ele>218.133075</ele>
        <time>2024-09-02T10:09:45.947Z</time>
      </trkpt>
      <trkpt lat="45.865205" lon="8.616028">
        <ele>217.998526</ele>
        <time>2024-09-02T10:09:48.802Z</time>
      </trkpt>
      <trkpt lat="45.865008" lon="8.616259">
        <ele>217.700320</ele>
        <time>2024-09-02T10:09:55.117Z</time>
      </trkpt>
      <trkpt lat="45.864864" lon="8.616345">
        <ele>217.681641</ele>
        <time>2024-09-02T10:09:58.979Z</time>
      </trkpt>
      <trkpt lat="45.864420" lon="8.616428">
        <ele>217.628015</ele>
        <time>2024-09-02T10:10:10.070Z</time>
      </trkpt>
      <trkpt lat="45.864327" lon="8.616500">
        <ele>217.615362</ele>
        <time>2024-09-02T10:10:12.985Z</time>
      </trkpt>
      <trkpt lat="45.864073" lon="8.616670">
        <ele>217.581799</ele>
        <time>2024-09-02T10:10:24.710Z</time>
      </trkpt>
      <trkpt lat="45.863858" lon="8.616978">
        <ele>217.545427</ele>
        <time>2024-09-02T10:10:38.166Z</time>
      </trkpt>
      <trkpt lat="45.863863" lon="8.617152">
        <ele>217.530902</ele>
        <time>2024-09-02T10:10:44.752Z</time>
      </trkpt>
      <trkpt lat="45.863617" lon="8.616984">
        <ele>217.498277</ele>
        <time>2024-09-02T10:10:58.078Z</time>
      </trkpt>
      <trkpt lat="45.863501" lon="8.616953">
        <ele>217.493033</ele>
        <time>2024-09-02T10:11:04.763Z</time>
      </trkpt>
      <trkpt lat="45.863299" lon="8.616757">
        <ele>217.696565</ele>
        <time>2024-09-02T10:11:17.337Z</time>
      </trkpt>
      <trkpt lat="45.863141" lon="8.616700">
        <ele>217.832574</ele>
        <time>2024-09-02T10:11:26.670Z</time>
      </trkpt>
      <trkpt lat="45.863005" lon="8.616538">
        <ele>217.980095</ele>
        <time>2024-09-02T10:11:35.729Z</time>
      </trkpt>
      <trkpt lat="45.862734" lon="8.616439">
        <ele>218.213551</ele>
        <time>2024-09-02T10:11:50.947Z</time>
      </trkpt>
      <trkpt lat="45.862710" lon="8.616421">
        <ele>218.236156</ele>
        <time>2024-09-02T10:11:52.416Z</time>
      </trkpt>
      <trkpt lat="45.862558" lon="8.616307">
        <ele>218.379322</ele>
        <time>2024-09-02T10:12:01.299Z</time>
      </trkpt>
      <trkpt lat="45.862393" lon="8.616185">
        <ele>218.534264</ele>
        <time>2024-09-02T10:12:10.762Z</time>
      </trkpt>
      <trkpt lat="45.862405" lon="8.616001">
        <ele>218.641707</ele>
        <time>2024-09-02T10:12:14.480Z</time>
      </trkpt>
      <trkpt lat="45.862337" lon="8.615816">
        <ele>218.763328</ele>
        <time>2024-09-02T10:12:19.639Z</time>
      </trkpt>
      <trkpt lat="45.862120" lon="8.615537">
        <ele>218.949537</ele>
        <time>2024-09-02T10:12:27.961Z</time>
      </trkpt>
      <trkpt lat="45.861575" lon="8.615279">
        <ele>218.036764</ele>
        <time>2024-09-02T10:12:43.977Z</time>
      </trkpt>
      <trkpt lat="45.861358" lon="8.615247">
        <ele>217.689787</ele>
        <time>2024-09-02T10:12:49.682Z</time>
      </trkpt>
      <trkpt lat="45.860895" lon="8.615054">
        <ele>216.922933</ele>
        <time>2024-09-02T10:13:02.146Z</time>
      </trkpt>
      <trkpt lat="45.860771" lon="8.614954">
        <ele>216.696720</ele>
        <time>2024-09-02T10:13:05.461Z</time>
      </trkpt>
      <trkpt lat="45.860648" lon="8.614915">
        <ele>216.496363</ele>
        <time>2024-09-02T10:13:08.493Z</time>
      </trkpt>
      <trkpt lat="45.860035" lon="8.614304">
        <ele>214.036267</ele>
        <time>2024-09-02T10:13:25.492Z</time>
      </trkpt>
      <trkpt lat="45.859796" lon="8.614276">
        <ele>213.060112</ele>
        <time>2024-09-02T10:13:33.991Z</time>
      </trkpt>
      <trkpt lat="45.859648" lon="8.614296">
        <ele>212.454971</ele>
        <time>2024-09-02T10:13:39.308Z</time>
      </trkpt>
      <trkpt lat="45.859476" lon="8.614116">
        <ele>211.588569</ele>
        <time>2024-09-02T10:13:46.783Z</time>
      </trkpt>
      <trkpt lat="45.859306" lon="8.614014">
        <ele>210.838546</ele>
        <time>2024-09-02T10:13:53.309Z</time>
      </trkpt>
      <trkpt lat="45.859150" lon="8.613960">
        <ele>210.185309</ele>
        <time>2024-09-02T10:13:58.995Z</time>
      </trkpt>
      <trkpt lat="45.859371" lon="8.613565">
        <ele>208.743291</ele>
        <time>2024-09-02T10:14:05.832Z</time>
      </trkpt>
      <trkpt lat="45.859532" lon="8.613523">
        <ele>208.009875</ele>
        <time>2024-09-02T10:14:08.976Z</time>
      </trkpt>
      <trkpt lat="45.859718" lon="8.613557">
        <ele>207.169494</ele>
        <time>2024-09-02T10:14:12.597Z</time>
      </trkpt>
      <trkpt lat="45.859820" lon="8.613458">
        <ele>206.617688</ele>
        <time>2024-09-02T10:14:14.974Z</time>
      </trkpt>
      <trkpt lat="45.859827" lon="8.613378">
        <ele>206.366018</ele>
        <time>2024-09-02T10:14:16.046Z</time>
      </trkpt>
      <trkpt lat="45.859465" lon="8.613077">
        <ele>204.491137</ele>
        <time>2024-09-02T10:14:23.973Z</time>
      </trkpt>
      <trkpt lat="45.859276" lon="8.612866">
        <ele>203.418130</ele>
        <time>2024-09-02T10:14:28.582Z</time>
      </trkpt>
      <trkpt lat="45.859001" lon="8.612471">
        <ele>201.674760</ele>
        <time>2024-09-02T10:14:36.148Z</time>
      </trkpt>
      <trkpt lat="45.858728" lon="8.612386">
        <ele>200.553090</ele>
        <time>2024-09-02T10:14:41.712Z</time>
      </trkpt>
      <trkpt lat="45.858585" lon="8.612355">
        <ele>200.169141</ele>
        <time>2024-09-02T10:14:44.568Z</time>
      </trkpt>
      <trkpt lat="45.858040" lon="8.612065">
        <ele>198.626077</ele>
        <time>2024-09-02T10:14:56.509Z</time>
      </trkpt>
      <trkpt lat="45.857847" lon="8.612020">
        <ele>198.106974</ele>
        <time>2024-09-02T10:15:00.721Z</time>
      </trkpt>
      <trkpt lat="45.857413" lon="8.612047">
        <ele>196.953677</ele>
        <time>2024-09-02T10:15:10.216Z</time>
      </trkpt>
      <trkpt lat="45.856935" lon="8.611747">
        <ele>195.814719</ele>
        <time>2024-09-02T10:15:21.914Z</time>
      </trkpt>
      <trkpt lat="45.856528" lon="8.611387">
        <ele>195.328852</ele>
        <time>2024-09-02T10:15:33.010Z</time>
      </trkpt>
      <trkpt lat="45.856012" lon="8.610808">
        <ele>194.663234</ele>
        <time>2024-09-02T10:15:48.790Z</time>
      </trkpt>
      <trkpt lat="45.855631" lon="8.610797">
        <ele>194.275909</ele>
        <time>2024-09-02T10:15:58.220Z</time>
      </trkpt>
      <trkpt lat="45.855366" lon="8.610610">
        <ele>194.128743</ele>
        <time>2024-09-02T10:16:05.712Z</time>
      </trkpt>
      <trkpt lat="45.855265" lon="8.610615">
        <ele>194.122176</ele>
        <time>2024-09-02T10:16:08.295Z</time>
      </trkpt>
      <trkpt lat="45.855172" lon="8.610695">
        <ele>194.115132</ele>
        <time>2024-09-02T10:16:11.060Z</time>
      </trkpt>
      <trkpt lat="45.854951" lon="8.611538">
        <ele>194.074371</ele>
        <time>2024-09-02T10:16:38.610Z</time>
      </trkpt>
      <trkpt lat="45.854788" lon="8.611953">
        <ele>194.052810</ele>
        <time>2024-09-02T10:16:53.447Z</time>
      </trkpt>
      <trkpt lat="45.854458" lon="8.612472">
        <ele>194.029584</ele>
        <time>2024-09-02T10:17:15.833Z</time>
      </trkpt>
      <trkpt lat="45.854316" lon="8.612696">
        <ele>194.105357</ele>
        <time>2024-09-02T10:17:25.865Z</time>
      </trkpt>
      <trkpt lat="45.854178" lon="8.612988">
        <ele>194.193634</ele>
        <time>2024-09-02T10:17:37.494Z</time>
      </trkpt>
      <trkpt lat="45.853635" lon="8.613448">
        <ele>194.420088</ele>
        <time>2024-09-02T10:18:07.356Z</time>
      </trkpt>
      <trkpt lat="45.853395" lon="8.613925">
        <ele>194.567298</ele>
        <time>2024-09-02T10:18:26.501Z</time>
      </trkpt>
      <trkpt lat="45.853285" lon="8.614795">
        <ele>194.849827</ele>
        <time>2024-09-02T10:18:54.700Z</time>
      </trkpt>
      <trkpt lat="45.853280" lon="8.615215">
        <ele>195.008553</ele>
        <time>2024-09-02T10:19:07.913Z</time>
      </trkpt>
      <trkpt lat="45.853387" lon="8.615703">
        <ele>195.201872</ele>
        <time>2024-09-02T10:19:23.718Z</time>
      </trkpt>
      <trkpt lat="45.853416" lon="8.616177">
        <ele>195.381668</ele>
        <time>2024-09-02T10:19:38.904Z</time>
      </trkpt>
      <trkpt lat="45.853464" lon="8.616988">
        <ele>195.857231</ele>
        <time>2024-09-02T10:20:07.759Z</time>
      </trkpt>
      <trkpt lat="45.853464" lon="8.617348">
        <ele>196.500477</ele>
        <time>2024-09-02T10:20:21.859Z</time>
      </trkpt>
      <trkpt lat="45.853646" lon="8.617654">
        <ele>197.219465</ele>
        <time>2024-09-02T10:20:38.102Z</time>
      </trkpt>
      <trkpt lat="45.853917" lon="8.617888">
        <ele>198.030731</ele>
        <time>2024-09-02T10:20:57.337Z</time>
      </trkpt>
      <trkpt lat="45.854075" lon="8.618103">
        <ele>198.589186</ele>
        <time>2024-09-02T10:21:07.204Z</time>
      </trkpt>
      <trkpt lat="45.854507" lon="8.618519">
        <ele>199.923622</ele>
        <time>2024-09-02T10:21:31.796Z</time>
      </trkpt>
      <trkpt lat="45.854774" lon="8.618601">
        <ele>200.483619</ele>
        <time>2024-09-02T10:21:44.729Z</time>
      </trkpt>
      <trkpt lat="45.855066" lon="8.618764">
        <ele>200.978617</ele>
        <time>2024-09-02T10:21:58.816Z</time>
      </trkpt>
      <trkpt lat="45.855541" lon="8.619411">
        <ele>202.013093</ele>
        <time>2024-09-02T10:22:26.571Z</time>
      </trkpt>
      <trkpt lat="45.855708" lon="8.619672">
        <ele>202.403104</ele>
        <time>2024-09-02T10:22:34.327Z</time>
      </trkpt>
      <trkpt lat="45.855853" lon="8.619986">
        <ele>202.817683</ele>
        <time>2024-09-02T10:22:41.410Z</time>
      </trkpt>
      <trkpt lat="45.856003" lon="8.620494">
        <ele>202.705851</ele>
        <time>2024-09-02T10:22:50.348Z</time>
      </trkpt>
      <trkpt lat="45.856085" lon="8.620980">
        <ele>202.037303</ele>
        <time>2024-09-02T10:22:57.912Z</time>
      </trkpt>
      <trkpt lat="45.854790" lon="8.621474">
        <ele>199.613553</ele>
        <time>2024-09-02T10:23:49.018Z</time>
      </trkpt>
      <trkpt lat="45.854594" lon="8.621432">
        <ele>199.542663</ele>
        <time>2024-09-02T10:23:56.951Z</time>
      </trkpt>
      <trkpt lat="45.854297" lon="8.621268">
        <ele>199.428835</ele>
        <time>2024-09-02T10:24:09.976Z</time>
      </trkpt>
      <trkpt lat="45.854176" lon="8.621347">
        <ele>199.381286</ele>
        <time>2024-09-02T10:24:15.578Z</time>
      </trkpt>
      <trkpt lat="45.853713" lon="8.621765">
        <ele>199.185640</ele>
        <time>2024-09-02T10:24:40.256Z</time>
      </trkpt>
      <trkpt lat="45.853486" lon="8.621903">
        <ele>199.097459</ele>
        <time>2024-09-02T10:24:52.331Z</time>
      </trkpt>
      <trkpt lat="45.853010" lon="8.621863">
        <ele>199.046951</ele>
        <time>2024-09-02T10:25:17.055Z</time>
      </trkpt>
      <trkpt lat="45.852832" lon="8.621809">
        <ele>199.083031</ele>
        <time>2024-09-02T10:25:23.234Z</time>
      </trkpt>
      <trkpt lat="45.852550" lon="8.621780">
        <ele>199.139100</ele>
        <time>2024-09-02T10:25:32.715Z</time>
      </trkpt>
      <trkpt lat="45.852238" lon="8.621605">
        <ele>199.205530</ele>
        <time>2024-09-02T10:25:43.233Z</time>
      </trkpt>
      <trkpt lat="45.851692" lon="8.621318">
        <ele>199.320841</ele>
        <time>2024-09-02T10:25:58.441Z</time>
      </trkpt>
      <trkpt lat="45.851067" lon="8.621311">
        <ele>198.481785</ele>
        <time>2024-09-02T10:26:12.629Z</time>
      </trkpt>
      <trkpt lat="45.851086" lon="8.621037">
        <ele>198.083547</ele>
        <time>2024-09-02T10:26:17.003Z</time>
      </trkpt>
      <trkpt lat="45.851104" lon="8.620549">
        <ele>197.376776</ele>
        <time>2024-09-02T10:26:29.898Z</time>
      </trkpt>
      <trkpt lat="45.851079" lon="8.619504">
        <ele>195.864528</ele>
        <time>2024-09-02T10:26:57.552Z</time>
      </trkpt>
      <trkpt lat="45.851067" lon="8.619263">
        <ele>195.572921</ele>
        <time>2024-09-02T10:27:03.980Z</time>
      </trkpt>
      <trkpt lat="45.850590" lon="8.619337">
        <ele>195.095665</ele>
        <time>2024-09-02T10:27:22.694Z</time>
      </trkpt>
      <trkpt lat="45.850476" lon="8.619282">
        <ele>194.976032</ele>
        <time>2024-09-02T10:27:27.492Z</time>
      </trkpt>
      <trkpt lat="45.849952" lon="8.619355">
        <ele>194.452336</ele>
        <time>2024-09-02T10:27:49.071Z</time>
      </trkpt>
      <trkpt lat="45.849638" lon="8.619283">
        <ele>194.136027</ele>
        <time>2024-09-02T10:28:02.898Z</time>
      </trkpt>
      <trkpt lat="45.849251" lon="8.619395">
        <ele>193.926827</ele>
        <time>2024-09-02T10:28:21.307Z</time>
      </trkpt>
      <trkpt lat="45.849041" lon="8.619689">
        <ele>194.207114</ele>
        <time>2024-09-02T10:28:35.982Z</time>
      </trkpt>
      <trkpt lat="45.848939" lon="8.619778">
        <ele>194.321171</ele>
        <time>2024-09-02T10:28:42.173Z</time>
      </trkpt>
      <trkpt lat="45.848697" lon="8.619849">
        <ele>194.557198</ele>
        <time>2024-09-02T10:28:55.414Z</time>
      </trkpt>
      <trkpt lat="45.848458" lon="8.620129">
        <ele>194.851971</ele>
        <time>2024-09-02T10:29:11.217Z</time>
      </trkpt>
      <trkpt lat="45.848431" lon="8.620211">
        <ele>194.912341</ele>
        <time>2024-09-02T10:29:14.673Z</time>
      </trkpt>
      <trkpt lat="45.848683" lon="8.620600">
        <ele>195.265931</ele>
        <time>2024-09-02T10:29:33.428Z</time>
      </trkpt>
      <trkpt lat="45.848852" lon="8.620844">
        <ele>195.494962</ele>
        <time>2024-09-02T10:29:45.378Z</time>
      </trkpt>
      <trkpt lat="45.848681" lon="8.621077">
        <ele>195.719719</ele>
        <time>2024-09-02T10:29:57.420Z</time>
      </trkpt>
      <trkpt lat="45.848588" lon="8.621129">
        <ele>195.814784</ele>
        <time>2024-09-02T10:30:02.236Z</time>
      </trkpt>
      <trkpt lat="45.848601" lon="8.621296">
        <ele>195.926276</ele>
        <time>2024-09-02T10:30:07.075Z</time>
      </trkpt>
      <trkpt lat="45.848555" lon="8.621372">
        <ele>195.993078</ele>
        <time>2024-09-02T10:30:10.102Z</time>
      </trkpt>
      <trkpt lat="45.848453" lon="8.621053">
        <ele>196.225964</ele>
        <time>2024-09-02T10:30:17.593Z</time>
      </trkpt>
      <trkpt lat="45.848451" lon="8.621046">
        <ele>196.230984</ele>
        <time>2024-09-02T10:30:17.767Z</time>
      </trkpt>
      <trkpt lat="45.848343" lon="8.620894">
        <ele>196.375044</ele>
        <time>2024-09-02T10:30:22.785Z</time>
      </trkpt>
      <trkpt lat="45.848256" lon="8.620862">
        <ele>196.460590</ele>
        <time>2024-09-02T10:30:25.546Z</time>
      </trkpt>
      <trkpt lat="45.848054" lon="8.620872">
        <ele>196.653113</ele>
        <time>2024-09-02T10:30:32.121Z</time>
      </trkpt>
      <trkpt lat="45.847795" lon="8.620985">
        <ele>196.910956</ele>
        <time>2024-09-02T10:30:40.808Z</time>
      </trkpt>
      <trkpt lat="45.847367" lon="8.621136">
        <ele>197.305165</ele>
        <time>2024-09-02T10:30:55.555Z</time>
      </trkpt>
      <trkpt lat="45.847187" lon="8.621255">
        <ele>197.415844</ele>
        <time>2024-09-02T10:31:02.009Z</time>
      </trkpt>
      <trkpt lat="45.847033" lon="8.621397">
        <ele>197.518068</ele>
        <time>2024-09-02T10:31:07.471Z</time>
      </trkpt>
      <trkpt lat="45.846714" lon="8.621958">
        <ele>197.799808</ele>
        <time>2024-09-02T10:31:23.771Z</time>
      </trkpt>
      <trkpt lat="45.846261" lon="8.622628">
        <ele>198.163066</ele>
        <time>2024-09-02T10:31:43.103Z</time>
      </trkpt>
      <trkpt lat="45.846245" lon="8.622802">
        <ele>198.231347</ele>
        <time>2024-09-02T10:31:46.392Z</time>
      </trkpt>
      <trkpt lat="45.846082" lon="8.622256">
        <ele>197.962542</ele>
        <time>2024-09-02T10:32:04.330Z</time>
      </trkpt>
      <trkpt lat="45.845609" lon="8.622299">
        <ele>197.527166</ele>
        <time>2024-09-02T10:32:24.290Z</time>
      </trkpt>
      <trkpt lat="45.845524" lon="8.622127">
        <ele>197.392218</ele>
        <time>2024-09-02T10:32:28.200Z</time>
      </trkpt>
      <trkpt lat="45.845481" lon="8.621865">
        <ele>197.219973</ele>
        <time>2024-09-02T10:32:33.119Z</time>
      </trkpt>
      <trkpt lat="45.845386" lon="8.621729">
        <ele>197.096727</ele>
        <time>2024-09-02T10:32:36.590Z</time>
      </trkpt>
      <trkpt lat="45.845273" lon="8.621752">
        <ele>196.991885</ele>
        <time>2024-09-02T10:32:39.506Z</time>
      </trkpt>
      <trkpt lat="45.845095" lon="8.621636">
        <ele>196.812311</ele>
        <time>2024-09-02T10:32:44.480Z</time>
      </trkpt>
      <trkpt lat="45.844799" lon="8.621597">
        <ele>196.501409</ele>
        <time>2024-09-02T10:32:52.110Z</time>
      </trkpt>
      <trkpt lat="45.844589" lon="8.621744">
        <ele>196.187620</ele>
        <time>2024-09-02T10:32:58.145Z</time>
      </trkpt>
      <trkpt lat="45.844551" lon="8.621953">
        <ele>195.985530</ele>
        <time>2024-09-02T10:33:02.089Z</time>
      </trkpt>
      <trkpt lat="45.844510" lon="8.621983">
        <ele>195.923724</ele>
        <time>2024-09-02T10:33:03.251Z</time>
      </trkpt>
      <trkpt lat="45.843829" lon="8.622518">
        <ele>194.881087</ele>
        <time>2024-09-02T10:33:23.333Z</time>
      </trkpt>
      <trkpt lat="45.843828" lon="8.622518">
        <ele>194.879744</ele>
        <time>2024-09-02T10:33:23.343Z</time>
      </trkpt>
      <trkpt lat="45.843342" lon="8.623040">
        <ele>194.142114</ele>
        <time>2024-09-02T10:33:39.353Z</time>
      </trkpt>
      <trkpt lat="45.843062" lon="8.623254">
        <ele>193.950606</ele>
        <time>2024-09-02T10:33:52.397Z</time>
      </trkpt>
      <trkpt lat="45.842787" lon="8.623377">
        <ele>193.776711</ele>
        <time>2024-09-02T10:34:04.293Z</time>
      </trkpt>
      <trkpt lat="45.842482" lon="8.623325">
        <ele>193.591283</ele>
        <time>2024-09-02T10:34:17.312Z</time>
      </trkpt>
      <trkpt lat="45.841972" lon="8.623472">
        <ele>193.277240</ele>
        <time>2024-09-02T10:34:40.163Z</time>
      </trkpt>
      <trkpt lat="45.841718" lon="8.623461">
        <ele>193.123826</ele>
        <time>2024-09-02T10:34:51.456Z</time>
      </trkpt>
      <trkpt lat="45.841492" lon="8.623530">
        <ele>193.195377</ele>
        <time>2024-09-02T10:35:01.649Z</time>
      </trkpt>
      <trkpt lat="45.841319" lon="8.623623">
        <ele>193.257864</ele>
        <time>2024-09-02T10:35:09.807Z</time>
      </trkpt>
      <trkpt lat="45.841093" lon="8.623895">
        <ele>193.357623</ele>
        <time>2024-09-02T10:35:22.821Z</time>
      </trkpt>
      <trkpt lat="45.840854" lon="8.623718">
        <ele>193.448591</ele>
        <time>2024-09-02T10:35:34.781Z</time>
      </trkpt>
      <trkpt lat="45.840750" lon="8.623593">
        <ele>193.494473</ele>
        <time>2024-09-02T10:35:40.939Z</time>
      </trkpt>
      <trkpt lat="45.840610" lon="8.623353">
        <ele>193.568235</ele>
        <time>2024-09-02T10:35:51.472Z</time>
      </trkpt>
      <trkpt lat="45.840508" lon="8.623265">
        <ele>193.608489</ele>
        <time>2024-09-02T10:35:57.328Z</time>
      </trkpt>
      <trkpt lat="45.840203" lon="8.623085">
        <ele>193.720035</ele>
        <time>2024-09-02T10:36:14.289Z</time>
      </trkpt>
      <trkpt lat="45.839898" lon="8.622905">
        <ele>193.920358</ele>
        <time>2024-09-02T10:36:31.346Z</time>
      </trkpt>
      <trkpt lat="45.839801" lon="8.622734">
        <ele>194.016854</ele>
        <time>2024-09-02T10:36:38.963Z</time>
      </trkpt>
      <trkpt lat="45.839685" lon="8.622611">
        <ele>194.107440</ele>
        <time>2024-09-02T10:36:46.248Z</time>
      </trkpt>
      <trkpt lat="45.839568" lon="8.622675">
        <ele>194.186086</ele>
        <time>2024-09-02T10:36:52.005Z</time>
      </trkpt>
      <trkpt lat="45.839205" lon="8.623236">
        <ele>194.521128</ele>
        <time>2024-09-02T10:37:16.014Z</time>
      </trkpt>
      <trkpt lat="45.839197" lon="8.623314">
        <ele>194.555628</ele>
        <time>2024-09-02T10:37:18.703Z</time>
      </trkpt>
      <trkpt lat="45.839736" lon="8.623598">
        <ele>194.943417</ele>
        <time>2024-09-02T10:37:46.323Z</time>
      </trkpt>
      <trkpt lat="45.839987" lon="8.623818">
        <ele>195.213821</ele>
        <time>2024-09-02T10:38:01.352Z</time>
      </trkpt>
      <trkpt lat="45.840116" lon="8.623970">
        <ele>195.367274</ele>
        <time>2024-09-02T10:38:09.945Z</time>
      </trkpt>
      <trkpt lat="45.839919" lon="8.624359">
        <ele>195.675324</ele>
        <time>2024-09-02T10:38:22.110Z</time>
      </trkpt>
      <trkpt lat="45.839843" lon="8.624560">
        <ele>195.821815</ele>
        <time>2024-09-02T10:38:30.194Z</time>
      </trkpt>
      <trkpt lat="45.839464" lon="8.624738">
        <ele>196.188464</ele>
        <time>2024-09-02T10:38:43.766Z</time>
      </trkpt>
      <trkpt lat="45.839439" lon="8.624928">
        <ele>196.312321</ele>
        <time>2024-09-02T10:38:47.836Z</time>
      </trkpt>
      <trkpt lat="45.839272" lon="8.625352">
        <ele>196.635892</ele>
        <time>2024-09-02T10:38:58.586Z</time>
      </trkpt>
      <trkpt lat="45.839005" lon="8.625581">
        <ele>196.951221</ele>
        <time>2024-09-02T10:39:09.072Z</time>
      </trkpt>
      <trkpt lat="45.838800" lon="8.625691">
        <ele>197.173099</ele>
        <time>2024-09-02T10:39:16.642Z</time>
      </trkpt>
      <trkpt lat="45.838495" lon="8.625743">
        <ele>197.484485</ele>
        <time>2024-09-02T10:39:27.204Z</time>
      </trkpt>
      <trkpt lat="45.838547" lon="8.626832">
        <ele>198.255456</ele>
        <time>2024-09-02T10:39:51.564Z</time>
      </trkpt>
      <trkpt lat="45.838503" lon="8.627114">
        <ele>198.489884</ele>
        <time>2024-09-02T10:39:58.117Z</time>
      </trkpt>
      <trkpt lat="45.838383" lon="8.627479">
        <ele>198.844324</ele>
        <time>2024-09-02T10:40:07.408Z</time>
      </trkpt>
      <trkpt lat="45.838338" lon="8.627553">
        <ele>198.930584</ele>
        <time>2024-09-02T10:40:09.630Z</time>
      </trkpt>
      <trkpt lat="45.838244" lon="8.627749">
        <ele>199.139552</ele>
        <time>2024-09-02T10:40:15.071Z</time>
      </trkpt>
      <trkpt lat="45.838048" lon="8.627948">
        <ele>199.442178</ele>
        <time>2024-09-02T10:40:23.104Z</time>
      </trkpt>
      <trkpt lat="45.837822" lon="8.628060">
        <ele>199.743560</ele>
        <time>2024-09-02T10:40:31.186Z</time>
      </trkpt>
      <trkpt lat="45.837726" lon="8.628206">
        <ele>199.919866</ele>
        <time>2024-09-02T10:40:35.818Z</time>
      </trkpt>
      <trkpt lat="45.837691" lon="8.628259">
        <ele>199.983998</ele>
        <time>2024-09-02T10:40:37.492Z</time>
      </trkpt>
      <trkpt lat="45.837594" lon="8.628611">
        <ele>200.316429</ele>
        <time>2024-09-02T10:40:46.881Z</time>
      </trkpt>
      <trkpt lat="45.837587" lon="8.629191">
        <ele>201.058564</ele>
        <time>2024-09-02T10:41:01.667Z</time>
      </trkpt>
      <trkpt lat="45.837522" lon="8.630322">
        <ele>203.092275</ele>
        <time>2024-09-02T10:41:33.245Z</time>
      </trkpt>
      <trkpt lat="45.837093" lon="8.634252">
        <ele>211.320074</ele>
        <time>2024-09-02T10:43:41.716Z</time>
      </trkpt>
      <trkpt lat="45.837082" lon="8.634550">
        <ele>211.751552</ele>
        <time>2024-09-02T10:43:51.062Z</time>
      </trkpt>
      <trkpt lat="45.836861" lon="8.634460">
        <ele>212.228303</ele>
        <time>2024-09-02T10:44:04.370Z</time>
      </trkpt>
      <trkpt lat="45.836502" lon="8.634110">
        <ele>213.128964</ele>
        <time>2024-09-02T10:44:28.870Z</time>
      </trkpt>
      <trkpt lat="45.835964" lon="8.633843">
        <ele>214.310350</ele>
        <time>2024-09-02T10:44:59.439Z</time>
      </trkpt>
      <trkpt lat="45.835653" lon="8.633582">
        <ele>215.047566</ele>
        <time>2024-09-02T10:45:18.719Z</time>
      </trkpt>
      <trkpt lat="45.835504" lon="8.633457">
        <ele>215.393277</ele>
        <time>2024-09-02T10:45:27.390Z</time>
      </trkpt>
      <trkpt lat="45.835100" lon="8.633192">
        <ele>216.283049</ele>
        <time>2024-09-02T10:45:50.776Z</time>
      </trkpt>
      <trkpt lat="45.834459" lon="8.632647">
        <ele>217.775438</ele>
        <time>2024-09-02T10:46:32.448Z</time>
      </trkpt>
      <trkpt lat="45.833838" lon="8.632321">
        <ele>219.388315</ele>
        <time>2024-09-02T10:47:14.758Z</time>
      </trkpt>
      <trkpt lat="45.833469" lon="8.631907">
        <ele>220.692428</ele>
        <time>2024-09-02T10:47:46.234Z</time>
      </trkpt>
      <trkpt lat="45.833382" lon="8.631761">
        <ele>221.065131</ele>
        <time>2024-09-02T10:47:55.678Z</time>
      </trkpt>
      <trkpt lat="45.832595" lon="8.630481">
        <ele>222.895211</ele>
        <time>2024-09-02T10:49:04.468Z</time>
      </trkpt>
      <trkpt lat="45.832210" lon="8.629745">
        <ele>222.056393</ele>
        <time>2024-09-02T10:49:32.443Z</time>
      </trkpt>
      <trkpt lat="45.831655" lon="8.628988">
        <ele>221.054842</ele>
        <time>2024-09-02T10:50:00.606Z</time>
      </trkpt>
      <trkpt lat="45.831347" lon="8.628678">
        <ele>219.684778</ele>
        <time>2024-09-02T10:50:13.337Z</time>
      </trkpt>
      <trkpt lat="45.830785" lon="8.628260">
        <ele>217.253024</ele>
        <time>2024-09-02T10:50:34.689Z</time>
      </trkpt>
      <trkpt lat="45.830197" lon="8.628173">
        <ele>214.982123</ele>
        <time>2024-09-02T10:50:56.838Z</time>
      </trkpt>
      <trkpt lat="45.829511" lon="8.628053">
        <ele>213.686933</ele>
        <time>2024-09-02T10:51:13.606Z</time>
      </trkpt>
      <trkpt lat="45.829467" lon="8.628124">
        <ele>213.626992</ele>
        <time>2024-09-02T10:51:15.777Z</time>
      </trkpt>
      <trkpt lat="45.829359" lon="8.628157">
        <ele>213.527023</ele>
        <time>2024-09-02T10:51:19.262Z</time>
      </trkpt>
      <trkpt lat="45.829341" lon="8.628190">
        <ele>213.500586</ele>
        <time>2024-09-02T10:51:20.191Z</time>
      </trkpt>
      <trkpt lat="45.829351" lon="8.628260">
        <ele>213.455509</ele>
        <time>2024-09-02T10:51:21.724Z</time>
      </trkpt>
      <trkpt lat="45.829494" lon="8.628586">
        <ele>213.212497</ele>
        <time>2024-09-02T10:51:29.973Z</time>
      </trkpt>
      <trkpt lat="45.829513" lon="8.628690">
        <ele>213.144673</ele>
        <time>2024-09-02T10:51:32.406Z</time>
      </trkpt>
      <trkpt lat="45.829475" lon="8.628804">
        <ele>213.064952</ele>
        <time>2024-09-02T10:51:35.798Z</time>
      </trkpt>
      <trkpt lat="45.829221" lon="8.629114">
        <ele>212.763084</ele>
        <time>2024-09-02T10:51:50.289Z</time>
      </trkpt>
      <trkpt lat="45.829061" lon="8.629279">
        <ele>212.584709</ele>
        <time>2024-09-02T10:51:59.269Z</time>
      </trkpt>
      <trkpt lat="45.828955" lon="8.629354">
        <ele>212.477758</ele>
        <time>2024-09-02T10:52:05.122Z</time>
      </trkpt>
      <trkpt lat="45.828849" lon="8.629429">
        <ele>212.446171</ele>
        <time>2024-09-02T10:52:10.360Z</time>
      </trkpt>
      <trkpt lat="45.828785" lon="8.629333">
        <ele>212.421426</ele>
        <time>2024-09-02T10:52:15.403Z</time>
      </trkpt>
      <trkpt lat="45.828633" lon="8.628977">
        <ele>212.343667</ele>
        <time>2024-09-02T10:52:30.345Z</time>
      </trkpt>
      <trkpt lat="45.828530" lon="8.628714">
        <ele>212.287479</ele>
        <time>2024-09-02T10:52:36.667Z</time>
      </trkpt>
      <trkpt lat="45.828493" lon="8.628677">
        <ele>212.275426</ele>
        <time>2024-09-02T10:52:37.790Z</time>
      </trkpt>
      <trkpt lat="45.828205" lon="8.628916">
        <ele>212.186506</ele>
        <time>2024-09-02T10:52:46.086Z</time>
      </trkpt>
      <trkpt lat="45.828024" lon="8.629028">
        <ele>212.133823</ele>
        <time>2024-09-02T10:52:50.947Z</time>
      </trkpt>
      <trkpt lat="45.827479" lon="8.629240">
        <ele>212.007332</ele>
        <time>2024-09-02T10:53:04.967Z</time>
      </trkpt>
      <trkpt lat="45.827054" lon="8.629475">
        <ele>212.095977</ele>
        <time>2024-09-02T10:53:17.641Z</time>
      </trkpt>
      <trkpt lat="45.827066" lon="8.630229">
        <ele>212.198264</ele>
        <time>2024-09-02T10:53:34.603Z</time>
      </trkpt>
      <trkpt lat="45.826966" lon="8.630180">
        <ele>212.218830</ele>
        <time>2024-09-02T10:53:37.508Z</time>
      </trkpt>
      <trkpt lat="45.826808" lon="8.630160">
        <ele>212.249701</ele>
        <time>2024-09-02T10:53:42.315Z</time>
      </trkpt>
      <trkpt lat="45.826578" lon="8.630187">
        <ele>212.294616</ele>
        <time>2024-09-02T10:53:49.054Z</time>
      </trkpt>
      <trkpt lat="45.826278" lon="8.630388">
        <ele>212.352908</ele>
        <time>2024-09-02T10:53:58.904Z</time>
      </trkpt>
      <trkpt lat="45.825087" lon="8.631347">
        <ele>212.481944</ele>
        <time>2024-09-02T10:54:35.273Z</time>
      </trkpt>
      <trkpt lat="45.824867" lon="8.631505">
        <ele>212.505189</ele>
        <time>2024-09-02T10:54:42.713Z</time>
      </trkpt>
      <trkpt lat="45.824828" lon="8.631535">
        <ele>212.509370</ele>
        <time>2024-09-02T10:54:44.030Z</time>
      </trkpt>
      <trkpt lat="45.823363" lon="8.632605">
        <ele>212.174390</ele>
        <time>2024-09-02T10:55:27.451Z</time>
      </trkpt>
      <trkpt lat="45.823331" lon="8.632652">
        <ele>212.164348</ele>
        <time>2024-09-02T10:55:28.575Z</time>
      </trkpt>
      <trkpt lat="45.823196" lon="8.632760">
        <ele>212.130452</ele>
        <time>2024-09-02T10:55:32.302Z</time>
      </trkpt>
      <trkpt lat="45.822799" lon="8.633056">
        <ele>211.725329</ele>
        <time>2024-09-02T10:55:42.899Z</time>
      </trkpt>
      <trkpt lat="45.822017" lon="8.633658">
        <ele>210.868827</ele>
        <time>2024-09-02T10:56:03.676Z</time>
      </trkpt>
      <trkpt lat="45.821916" lon="8.633736">
        <ele>210.758126</ele>
        <time>2024-09-02T10:56:06.305Z</time>
      </trkpt>
      <trkpt lat="45.821655" lon="8.633936">
        <ele>210.472552</ele>
        <time>2024-09-02T10:56:13.298Z</time>
      </trkpt>
      <trkpt lat="45.821637" lon="8.633949">
        <ele>210.453103</ele>
        <time>2024-09-02T10:56:13.765Z</time>
      </trkpt>
      <trkpt lat="45.821054" lon="8.634375">
        <ele>210.382023</ele>
        <time>2024-09-02T10:56:30.416Z</time>
      </trkpt>
      <trkpt lat="45.820869" lon="8.634510">
        <ele>210.380385</ele>
        <time>2024-09-02T10:56:35.890Z</time>
      </trkpt>
      <trkpt lat="45.820010" lon="8.635217">
        <ele>210.372572</ele>
        <time>2024-09-02T10:57:21.729Z</time>
      </trkpt>
      <trkpt lat="45.818972" lon="8.636016">
        <ele>210.798711</ele>
        <time>2024-09-02T10:58:18.330Z</time>
      </trkpt>
      <trkpt lat="45.818242" lon="8.636571">
        <ele>211.018217</ele>
        <time>2024-09-02T10:58:55.919Z</time>
      </trkpt>
      <trkpt lat="45.816929" lon="8.637529">
        <ele>210.911537</ele>
        <time>2024-09-02T11:00:00.535Z</time>
      </trkpt>
      <trkpt lat="45.816293" lon="8.637958">
        <ele>211.122818</ele>
        <time>2024-09-02T11:00:31.744Z</time>
      </trkpt>
      <trkpt lat="45.816211" lon="8.638114">
        <ele>211.175911</ele>
        <time>2024-09-02T11:00:38.018Z</time>
      </trkpt>
      <trkpt lat="45.816212" lon="8.638622">
        <ele>211.313947</ele>
        <time>2024-09-02T11:00:54.675Z</time>
      </trkpt>
      <trkpt lat="45.816336" lon="8.639105">
        <ele>211.453810</ele>
        <time>2024-09-02T11:01:12.074Z</time>
      </trkpt>
      <trkpt lat="45.816420" lon="8.639647">
        <ele>211.606098</ele>
        <time>2024-09-02T11:01:31.090Z</time>
      </trkpt>
      <trkpt lat="45.816424" lon="8.640075">
        <ele>211.817481</ele>
        <time>2024-09-02T11:01:45.902Z</time>
      </trkpt>
      <trkpt lat="45.816509" lon="8.640286">
        <ele>211.937835</ele>
        <time>2024-09-02T11:01:54.421Z</time>
      </trkpt>
      <trkpt lat="45.817011" lon="8.640399">
        <ele>212.297885</ele>
        <time>2024-09-02T11:02:19.617Z</time>
      </trkpt>
      <trkpt lat="45.817171" lon="8.640545">
        <ele>212.432240</ele>
        <time>2024-09-02T11:02:28.833Z</time>
      </trkpt>
      <trkpt lat="45.817295" lon="8.641020">
        <ele>212.682726</ele>
        <time>2024-09-02T11:02:45.698Z</time>
      </trkpt>
      <trkpt lat="45.817489" lon="8.641563">
        <ele>213.095262</ele>
        <time>2024-09-02T11:03:05.564Z</time>
      </trkpt>
      <trkpt lat="45.817525" lon="8.641817">
        <ele>213.356721</ele>
        <time>2024-09-02T11:03:14.398Z</time>
      </trkpt>
      <trkpt lat="45.817020" lon="8.642171">
        <ele>214.170194</ele>
        <time>2024-09-02T11:03:41.956Z</time>
      </trkpt>
      <trkpt lat="45.816997" lon="8.642319">
        <ele>214.323153</ele>
        <time>2024-09-02T11:03:47.746Z</time>
      </trkpt>
      <trkpt lat="45.817020" lon="8.643100">
        <ele>215.111673</ele>
        <time>2024-09-02T11:04:18.520Z</time>
      </trkpt>
      <trkpt lat="45.817049" lon="8.644078">
        <ele>216.554016</ele>
        <time>2024-09-02T11:05:00.004Z</time>
      </trkpt>
      <trkpt lat="45.816914" lon="8.644026">
        <ele>216.905140</ele>
        <time>2024-09-02T11:05:05.020Z</time>
      </trkpt>
      <trkpt lat="45.816917" lon="8.644344">
        <ele>217.461922</ele>
        <time>2024-09-02T11:05:19.589Z</time>
      </trkpt>
      <trkpt lat="45.816870" lon="8.644678">
        <ele>218.058465</ele>
        <time>2024-09-02T11:05:33.702Z</time>
      </trkpt>
      <trkpt lat="45.816768" lon="8.644811">
        <ele>218.404683</ele>
        <time>2024-09-02T11:05:42.312Z</time>
      </trkpt>
      <trkpt lat="45.816642" lon="8.644831">
        <ele>218.723123</ele>
        <time>2024-09-02T11:05:49.228Z</time>
      </trkpt>
      <trkpt lat="45.816457" lon="8.644914">
        <ele>219.210026</ele>
        <time>2024-09-02T11:06:02.212Z</time>
      </trkpt>
      <trkpt lat="45.816385" lon="8.645154">
        <ele>219.667477</ele>
        <time>2024-09-02T11:06:11.979Z</time>
      </trkpt>
      <trkpt lat="45.816344" lon="8.645390">
        <ele>220.022447</ele>
        <time>2024-09-02T11:06:22.863Z</time>
      </trkpt>
      <trkpt lat="45.815853" lon="8.645473">
        <ele>220.333262</ele>
        <time>2024-09-02T11:06:49.345Z</time>
      </trkpt>
      <trkpt lat="45.815689" lon="8.645516">
        <ele>220.438072</ele>
        <time>2024-09-02T11:06:58.003Z</time>
      </trkpt>
      <trkpt lat="45.815525" lon="8.645559">
        <ele>220.542882</ele>
        <time>2024-09-02T11:07:06.040Z</time>
      </trkpt>
      <trkpt lat="45.815129" lon="8.646377">
        <ele>220.979284</ele>
        <time>2024-09-02T11:07:37.501Z</time>
      </trkpt>
      <trkpt lat="45.815068" lon="8.646857">
        <ele>221.039519</ele>
        <time>2024-09-02T11:07:51.537Z</time>
      </trkpt>
      <trkpt lat="45.814969" lon="8.647370">
        <ele>220.708860</ele>
        <time>2024-09-02T11:08:06.783Z</time>
      </trkpt>
      <trkpt lat="45.814515" lon="8.647474">
        <ele>220.299104</ele>
        <time>2024-09-02T11:08:25.895Z</time>
      </trkpt>
      <trkpt lat="45.813870" lon="8.647625">
        <ele>219.716641</ele>
        <time>2024-09-02T11:08:52.999Z</time>
      </trkpt>
      <trkpt lat="45.813716" lon="8.647735">
        <ele>219.563318</ele>
        <time>2024-09-02T11:09:00.110Z</time>
      </trkpt>
      <trkpt lat="45.813711" lon="8.648300">
        <ele>219.394413</ele>
        <time>2024-09-02T11:09:16.656Z</time>
      </trkpt>
      <trkpt lat="45.813675" lon="8.648509">
        <ele>219.338188</ele>
        <time>2024-09-02T11:09:23.046Z</time>
      </trkpt>
      <trkpt lat="45.813568" lon="8.649135">
        <ele>219.169855</ele>
        <time>2024-09-02T11:09:41.912Z</time>
      </trkpt>
      <trkpt lat="45.813636" lon="8.649800">
        <ele>218.994322</ele>
        <time>2024-09-02T11:10:02.465Z</time>
      </trkpt>
      <trkpt lat="45.813536" lon="8.650089">
        <ele>218.910056</ele>
        <time>2024-09-02T11:10:13.061Z</time>
      </trkpt>
      <trkpt lat="45.813629" lon="8.650669">
        <ele>218.859828</ele>
        <time>2024-09-02T11:10:32.245Z</time>
      </trkpt>
      <trkpt lat="45.813862" lon="8.651138">
        <ele>218.870999</ele>
        <time>2024-09-02T11:10:50.333Z</time>
      </trkpt>
      <trkpt lat="45.813964" lon="8.651229">
        <ele>218.874341</ele>
        <time>2024-09-02T11:10:55.795Z</time>
      </trkpt>
      <trkpt lat="45.814217" lon="8.651165">
        <ele>218.881491</ele>
        <time>2024-09-02T11:11:07.296Z</time>
      </trkpt>
      <trkpt lat="45.814486" lon="8.651141">
        <ele>218.888991</ele>
        <time>2024-09-02T11:11:19.415Z</time>
      </trkpt>
      <trkpt lat="45.814595" lon="8.651218">
        <ele>218.892372</ele>
        <time>2024-09-02T11:11:24.901Z</time>
      </trkpt>
      <trkpt lat="45.814639" lon="8.651374">
        <ele>218.895636</ele>
        <time>2024-09-02T11:11:30.157Z</time>
      </trkpt>
      <trkpt lat="45.814701" lon="8.652174">
        <ele>218.622142</ele>
        <time>2024-09-02T11:11:54.835Z</time>
      </trkpt>
      <trkpt lat="45.814778" lon="8.652788">
        <ele>218.229367</ele>
        <time>2024-09-02T11:12:13.362Z</time>
      </trkpt>
      <trkpt lat="45.814868" lon="8.653258">
        <ele>217.922496</ele>
        <time>2024-09-02T11:12:27.359Z</time>
      </trkpt>
      <trkpt lat="45.815009" lon="8.653422">
        <ele>217.758535</ele>
        <time>2024-09-02T11:12:34.688Z</time>
      </trkpt>
      <trkpt lat="45.814968" lon="8.653719">
        <ele>217.567916</ele>
        <time>2024-09-02T11:12:43.149Z</time>
      </trkpt>
      <trkpt lat="45.815149" lon="8.654620">
        <ele>216.999264</ele>
        <time>2024-09-02T11:13:09.236Z</time>
      </trkpt>
      <trkpt lat="45.815177" lon="8.654987">
        <ele>216.783620</ele>
        <time>2024-09-02T11:13:19.701Z</time>
      </trkpt>
      <trkpt lat="45.815162" lon="8.655313">
        <ele>216.592790</ele>
        <time>2024-09-02T11:13:29.107Z</time>
      </trkpt>
      <trkpt lat="45.814820" lon="8.655296">
        <ele>216.306006</ele>
        <time>2024-09-02T11:13:43.507Z</time>
      </trkpt>
      <trkpt lat="45.814627" lon="8.655411">
        <ele>216.130870</ele>
        <time>2024-09-02T11:13:52.328Z</time>
      </trkpt>
      <trkpt lat="45.814436" lon="8.655521">
        <ele>215.958389</ele>
        <time>2024-09-02T11:14:01.171Z</time>
      </trkpt>
      <trkpt lat="45.814309" lon="8.655593">
        <ele>215.843950</ele>
        <time>2024-09-02T11:14:07.072Z</time>
      </trkpt>
      <trkpt lat="45.814228" lon="8.655639">
        <ele>215.770944</ele>
        <time>2024-09-02T11:14:10.859Z</time>
      </trkpt>
      <trkpt lat="45.813494" lon="8.656083">
        <ele>216.542489</ele>
        <time>2024-09-02T11:14:47.396Z</time>
      </trkpt>
      <trkpt lat="45.812377" lon="8.657337">
        <ele>218.828204</ele>
        <time>2024-09-02T11:16:04.180Z</time>
      </trkpt>
      <trkpt lat="45.811640" lon="8.658000">
        <ele>221.576531</ele>
        <time>2024-09-02T11:16:58.917Z</time>
      </trkpt>
      <trkpt lat="45.811259" lon="8.658268">
        <ele>222.917143</ele>
        <time>2024-09-02T11:17:21.572Z</time>
      </trkpt>
      <trkpt lat="45.810217" lon="8.659186">
        <ele>229.693461</ele>
        <time>2024-09-02T11:18:33.487Z</time>
      </trkpt>
      <trkpt lat="45.809964" lon="8.659438">
        <ele>231.457657</ele>
        <time>2024-09-02T11:18:53.455Z</time>
      </trkpt>
      <trkpt lat="45.809258" lon="8.660547">
        <ele>239.044358</ele>
        <time>2024-09-02T11:20:08.324Z</time>
      </trkpt>
      <trkpt lat="45.809103" lon="8.661063">
        <ele>242.189802</ele>
        <time>2024-09-02T11:20:37.792Z</time>
      </trkpt>
      <trkpt lat="45.808907" lon="8.661393">
        <ele>244.616871</ele>
        <time>2024-09-02T11:21:01.137Z</time>
      </trkpt>
      <trkpt lat="45.808685" lon="8.661563">
        <ele>246.637889</ele>
        <time>2024-09-02T11:21:21.129Z</time>
      </trkpt>
      <trkpt lat="45.808474" lon="8.661609">
        <ele>248.445235</ele>
        <time>2024-09-02T11:21:38.686Z</time>
      </trkpt>
      <trkpt lat="45.808247" lon="8.661485">
        <ele>250.843289</ele>
        <time>2024-09-02T11:21:59.547Z</time>
      </trkpt>
      <trkpt lat="45.807728" lon="8.660887">
        <ele>257.415232</ele>
        <time>2024-09-02T11:23:01.209Z</time>
      </trkpt>
      <trkpt lat="45.807458" lon="8.660453">
        <ele>261.418500</ele>
        <time>2024-09-02T11:23:38.424Z</time>
      </trkpt>
      <trkpt lat="45.807073" lon="8.660418">
        <ele>265.227086</ele>
        <time>2024-09-02T11:24:18.677Z</time>
      </trkpt>
      <trkpt lat="45.806687" lon="8.660384">
        <ele>267.505935</ele>
        <time>2024-09-02T11:24:55.731Z</time>
      </trkpt>
      <trkpt lat="45.806669" lon="8.660475">
        <ele>267.857183</ele>
        <time>2024-09-02T11:25:00.840Z</time>
      </trkpt>
      <trkpt lat="45.806509" lon="8.660624">
        <ele>268.873319</ele>
        <time>2024-09-02T11:25:14.414Z</time>
      </trkpt>
      <trkpt lat="45.806241" lon="8.660769">
        <ele>270.399082</ele>
        <time>2024-09-02T11:25:33.545Z</time>
      </trkpt>
      <trkpt lat="45.805979" lon="8.660947">
        <ele>271.943328</ele>
        <time>2024-09-02T11:25:50.194Z</time>
      </trkpt>
      <trkpt lat="45.805905" lon="8.661113">
        <ele>272.675002</ele>
        <time>2024-09-02T11:25:57.384Z</time>
      </trkpt>
      <trkpt lat="45.805862" lon="8.661295">
        <ele>273.388588</ele>
        <time>2024-09-02T11:26:03.510Z</time>
      </trkpt>
      <trkpt lat="45.805833" lon="8.661291">
        <ele>273.543780</ele>
        <time>2024-09-02T11:26:04.788Z</time>
      </trkpt>
      <trkpt lat="45.805808" lon="8.661371">
        <ele>273.869330</ele>
        <time>2024-09-02T11:26:07.508Z</time>
      </trkpt>
      <trkpt lat="45.805751" lon="8.661484">
        <ele>274.387270</ele>
        <time>2024-09-02T11:26:11.391Z</time>
      </trkpt>
      <trkpt lat="45.805549" lon="8.661671">
        <ele>275.208901</ele>
        <time>2024-09-02T11:26:19.702Z</time>
      </trkpt>
      <trkpt lat="45.805068" lon="8.661869">
        <ele>274.692101</ele>
        <time>2024-09-02T11:26:32.740Z</time>
      </trkpt>
      <trkpt lat="45.804861" lon="8.662055">
        <ele>274.439845</ele>
        <time>2024-09-02T11:26:38.322Z</time>
      </trkpt>
      <trkpt lat="45.804750" lon="8.662205">
        <ele>274.282355</ele>
        <time>2024-09-02T11:26:41.698Z</time>
      </trkpt>
      <trkpt lat="45.804466" lon="8.662592">
        <ele>273.877814</ele>
        <time>2024-09-02T11:26:50.124Z</time>
      </trkpt>
      <trkpt lat="45.804366" lon="8.662859">
        <ele>273.659604</ele>
        <time>2024-09-02T11:26:54.546Z</time>
      </trkpt>
      <trkpt lat="45.804256" lon="8.664623">
        <ele>273.425889</ele>
        <time>2024-09-02T11:27:22.255Z</time>
      </trkpt>
      <trkpt lat="45.804190" lon="8.664609">
        <ele>273.425889</ele>
        <time>2024-09-02T11:27:23.799Z</time>
      </trkpt>
      <trkpt lat="45.804174" lon="8.664772">
        <ele>273.425889</ele>
        <time>2024-09-02T11:27:26.633Z</time>
      </trkpt>
    </trkseg>
  </trk>
</gpx>